<?xml version="1.0" encoding="UTF-8" standalone="no" ?>
<gpx xmlns="http://www.topografix.com/GPX/1/1" xmlns:xsi="http://www.w3.org/2001/XMLSchema-instance" xsi:schemaLocation="http://www.topografix.com/GPX/1/1 http://www.topografix.com/GPX/1/1/gpx.xsd" version="1.1" creator="VisuGPX - https://www.visugpx.com">
  <metadata>
    <name>Novalaise-Mont Tournier (27 km-690m)</name>
  </metadata>
  <trk>
    <name><![CDATA[Novalaise-Mont Tournier (27 km-690m)]]></name>
    <trkseg>
      <trkpt lat="45.59563" lon="5.77213">
        <ele>450</ele>
        <time>2010-03-28T12:22:22Z</time>
      </trkpt>
      <trkpt lat="45.59563" lon="5.77213">
        <ele>449</ele>
        <time>2010-03-28T12:22:24Z</time>
      </trkpt>
      <trkpt lat="45.59564" lon="5.77213">
        <ele>446</ele>
        <time>2010-03-28T12:22:40Z</time>
      </trkpt>
      <trkpt lat="45.59566" lon="5.77217">
        <ele>441</ele>
        <time>2010-03-28T12:22:46Z</time>
      </trkpt>
      <trkpt lat="45.59563" lon="5.77211">
        <ele>439</ele>
        <time>2010-03-28T12:22:51Z</time>
      </trkpt>
      <trkpt lat="45.59554" lon="5.77202">
        <ele>438</ele>
        <time>2010-03-28T12:22:56Z</time>
      </trkpt>
      <trkpt lat="45.59548" lon="5.77185">
        <ele>438</ele>
        <time>2010-03-28T12:23:00Z</time>
      </trkpt>
      <trkpt lat="45.59519" lon="5.77143">
        <ele>438</ele>
        <time>2010-03-28T12:23:10Z</time>
      </trkpt>
      <trkpt lat="45.59515" lon="5.7714">
        <ele>437</ele>
        <time>2010-03-28T12:23:11Z</time>
      </trkpt>
      <trkpt lat="45.59488" lon="5.77127">
        <ele>436</ele>
        <time>2010-03-28T12:23:19Z</time>
      </trkpt>
      <trkpt lat="45.59488" lon="5.77123">
        <ele>436</ele>
        <time>2010-03-28T12:23:20Z</time>
      </trkpt>
      <trkpt lat="45.59491" lon="5.77103">
        <ele>435</ele>
        <time>2010-03-28T12:23:24Z</time>
      </trkpt>
      <trkpt lat="45.59493" lon="5.77085">
        <ele>435</ele>
        <time>2010-03-28T12:23:27Z</time>
      </trkpt>
      <trkpt lat="45.59492" lon="5.77061">
        <ele>435</ele>
        <time>2010-03-28T12:23:31Z</time>
      </trkpt>
      <trkpt lat="45.59494" lon="5.77048">
        <ele>436</ele>
        <time>2010-03-28T12:23:33Z</time>
      </trkpt>
      <trkpt lat="45.59477" lon="5.77019">
        <ele>437</ele>
        <time>2010-03-28T12:23:39Z</time>
      </trkpt>
      <trkpt lat="45.59406" lon="5.76953">
        <ele>435</ele>
        <time>2010-03-28T12:23:53Z</time>
      </trkpt>
      <trkpt lat="45.59365" lon="5.76905">
        <ele>433</ele>
        <time>2010-03-28T12:24:05Z</time>
      </trkpt>
      <trkpt lat="45.59327" lon="5.76856">
        <ele>434</ele>
        <time>2010-03-28T12:24:20Z</time>
      </trkpt>
      <trkpt lat="45.59315" lon="5.76782">
        <ele>436</ele>
        <time>2010-03-28T12:24:37Z</time>
      </trkpt>
      <trkpt lat="45.59308" lon="5.76698">
        <ele>437</ele>
        <time>2010-03-28T12:24:55Z</time>
      </trkpt>
      <trkpt lat="45.59301" lon="5.7663">
        <ele>440</ele>
        <time>2010-03-28T12:25:10Z</time>
      </trkpt>
      <trkpt lat="45.59295" lon="5.76559">
        <ele>441</ele>
        <time>2010-03-28T12:25:25Z</time>
      </trkpt>
      <trkpt lat="45.59289" lon="5.76488">
        <ele>442</ele>
        <time>2010-03-28T12:25:40Z</time>
      </trkpt>
      <trkpt lat="45.59283" lon="5.76419">
        <ele>444</ele>
        <time>2010-03-28T12:25:54Z</time>
      </trkpt>
      <trkpt lat="45.59282" lon="5.764">
        <ele>444</ele>
        <time>2010-03-28T12:26:04Z</time>
      </trkpt>
      <trkpt lat="45.59281" lon="5.76393">
        <ele>444</ele>
        <time>2010-03-28T12:26:31Z</time>
      </trkpt>
      <trkpt lat="45.59279" lon="5.76343">
        <ele>445</ele>
        <time>2010-03-28T12:26:43Z</time>
      </trkpt>
      <trkpt lat="45.59294" lon="5.76281">
        <ele>446</ele>
        <time>2010-03-28T12:26:56Z</time>
      </trkpt>
      <trkpt lat="45.5932" lon="5.76234">
        <ele>447</ele>
        <time>2010-03-28T12:27:08Z</time>
      </trkpt>
      <trkpt lat="45.5935" lon="5.76188">
        <ele>448</ele>
        <time>2010-03-28T12:27:21Z</time>
      </trkpt>
      <trkpt lat="45.59433" lon="5.76052">
        <ele>451</ele>
        <time>2010-03-28T12:27:54Z</time>
      </trkpt>
      <trkpt lat="45.59439" lon="5.76043">
        <ele>451</ele>
        <time>2010-03-28T12:27:56Z</time>
      </trkpt>
      <trkpt lat="45.59473" lon="5.75979">
        <ele>452</ele>
        <time>2010-03-28T12:28:10Z</time>
      </trkpt>
      <trkpt lat="45.59487" lon="5.75898">
        <ele>454</ele>
        <time>2010-03-28T12:28:25Z</time>
      </trkpt>
      <trkpt lat="45.59491" lon="5.75814">
        <ele>457</ele>
        <time>2010-03-28T12:28:41Z</time>
      </trkpt>
      <trkpt lat="45.59494" lon="5.75726">
        <ele>462</ele>
        <time>2010-03-28T12:29:01Z</time>
      </trkpt>
      <trkpt lat="45.59498" lon="5.75572">
        <ele>466</ele>
        <time>2010-03-28T12:29:39Z</time>
      </trkpt>
      <trkpt lat="45.595" lon="5.75508">
        <ele>469</ele>
        <time>2010-03-28T12:29:56Z</time>
      </trkpt>
      <trkpt lat="45.59502" lon="5.75434">
        <ele>473</ele>
        <time>2010-03-28T12:30:15Z</time>
      </trkpt>
      <trkpt lat="45.59502" lon="5.75363">
        <ele>475</ele>
        <time>2010-03-28T12:30:33Z</time>
      </trkpt>
      <trkpt lat="45.59499" lon="5.75295">
        <ele>478</ele>
        <time>2010-03-28T12:30:52Z</time>
      </trkpt>
      <trkpt lat="45.59497" lon="5.7525">
        <ele>481</ele>
        <time>2010-03-28T12:31:07Z</time>
      </trkpt>
      <trkpt lat="45.59487" lon="5.75173">
        <ele>484</ele>
        <time>2010-03-28T12:31:38Z</time>
      </trkpt>
      <trkpt lat="45.5948" lon="5.75119">
        <ele>487</ele>
        <time>2010-03-28T12:31:54Z</time>
      </trkpt>
      <trkpt lat="45.59474" lon="5.75071">
        <ele>488</ele>
        <time>2010-03-28T12:32:09Z</time>
      </trkpt>
      <trkpt lat="45.59463" lon="5.75034">
        <ele>490</ele>
        <time>2010-03-28T12:32:22Z</time>
      </trkpt>
      <trkpt lat="45.59448" lon="5.74994">
        <ele>492</ele>
        <time>2010-03-28T12:32:36Z</time>
      </trkpt>
      <trkpt lat="45.59432" lon="5.74945">
        <ele>496</ele>
        <time>2010-03-28T12:32:51Z</time>
      </trkpt>
      <trkpt lat="45.59421" lon="5.7488">
        <ele>499</ele>
        <time>2010-03-28T12:33:10Z</time>
      </trkpt>
      <trkpt lat="45.59413" lon="5.74822">
        <ele>501</ele>
        <time>2010-03-28T12:33:27Z</time>
      </trkpt>
      <trkpt lat="45.59409" lon="5.74775">
        <ele>503</ele>
        <time>2010-03-28T12:33:42Z</time>
      </trkpt>
      <trkpt lat="45.59421" lon="5.74733">
        <ele>506</ele>
        <time>2010-03-28T12:33:57Z</time>
      </trkpt>
      <trkpt lat="45.59443" lon="5.74706">
        <ele>509</ele>
        <time>2010-03-28T12:34:11Z</time>
      </trkpt>
      <trkpt lat="45.59477" lon="5.74687">
        <ele>512</ele>
        <time>2010-03-28T12:34:28Z</time>
      </trkpt>
      <trkpt lat="45.59513" lon="5.74673">
        <ele>514</ele>
        <time>2010-03-28T12:34:45Z</time>
      </trkpt>
      <trkpt lat="45.59546" lon="5.74674">
        <ele>516</ele>
        <time>2010-03-28T12:35:00Z</time>
      </trkpt>
      <trkpt lat="45.59634" lon="5.74771">
        <ele>524</ele>
        <time>2010-03-28T12:35:48Z</time>
      </trkpt>
      <trkpt lat="45.59672" lon="5.74794">
        <ele>525</ele>
        <time>2010-03-28T12:36:05Z</time>
      </trkpt>
      <trkpt lat="45.59687" lon="5.74762">
        <ele>527</ele>
        <time>2010-03-28T12:36:16Z</time>
      </trkpt>
      <trkpt lat="45.59669" lon="5.74701">
        <ele>530</ele>
        <time>2010-03-28T12:36:34Z</time>
      </trkpt>
      <trkpt lat="45.59658" lon="5.74641">
        <ele>532</ele>
        <time>2010-03-28T12:36:51Z</time>
      </trkpt>
      <trkpt lat="45.59669" lon="5.74587">
        <ele>534</ele>
        <time>2010-03-28T12:37:05Z</time>
      </trkpt>
      <trkpt lat="45.59688" lon="5.74527">
        <ele>536</ele>
        <time>2010-03-28T12:37:21Z</time>
      </trkpt>
      <trkpt lat="45.59675" lon="5.7447">
        <ele>538</ele>
        <time>2010-03-28T12:37:36Z</time>
      </trkpt>
      <trkpt lat="45.59642" lon="5.74418">
        <ele>540</ele>
        <time>2010-03-28T12:37:53Z</time>
      </trkpt>
      <trkpt lat="45.59606" lon="5.74363">
        <ele>543</ele>
        <time>2010-03-28T12:38:11Z</time>
      </trkpt>
      <trkpt lat="45.59571" lon="5.74308">
        <ele>546</ele>
        <time>2010-03-28T12:38:29Z</time>
      </trkpt>
      <trkpt lat="45.59552" lon="5.74281">
        <ele>548</ele>
        <time>2010-03-28T12:38:41Z</time>
      </trkpt>
      <trkpt lat="45.59519" lon="5.74241">
        <ele>550</ele>
        <time>2010-03-28T12:38:57Z</time>
      </trkpt>
      <trkpt lat="45.59472" lon="5.74208">
        <ele>552</ele>
        <time>2010-03-28T12:39:15Z</time>
      </trkpt>
      <trkpt lat="45.59422" lon="5.74179">
        <ele>553</ele>
        <time>2010-03-28T12:39:33Z</time>
      </trkpt>
      <trkpt lat="45.59376" lon="5.7415">
        <ele>555</ele>
        <time>2010-03-28T12:39:50Z</time>
      </trkpt>
      <trkpt lat="45.59341" lon="5.74098">
        <ele>556</ele>
        <time>2010-03-28T12:40:07Z</time>
      </trkpt>
      <trkpt lat="45.59309" lon="5.74032">
        <ele>559</ele>
        <time>2010-03-28T12:40:26Z</time>
      </trkpt>
      <trkpt lat="45.59274" lon="5.73981">
        <ele>561</ele>
        <time>2010-03-28T12:40:43Z</time>
      </trkpt>
      <trkpt lat="45.59251" lon="5.73954">
        <ele>561</ele>
        <time>2010-03-28T12:40:54Z</time>
      </trkpt>
      <trkpt lat="45.59223" lon="5.73918">
        <ele>562</ele>
        <time>2010-03-28T12:41:07Z</time>
      </trkpt>
      <trkpt lat="45.59208" lon="5.73899">
        <ele>563</ele>
        <time>2010-03-28T12:41:14Z</time>
      </trkpt>
      <trkpt lat="45.59212" lon="5.73886">
        <ele>563</ele>
        <time>2010-03-28T12:41:18Z</time>
      </trkpt>
      <trkpt lat="45.59224" lon="5.7388">
        <ele>562</ele>
        <time>2010-03-28T12:41:21Z</time>
      </trkpt>
      <trkpt lat="45.59277" lon="5.73851">
        <ele>561</ele>
        <time>2010-03-28T12:41:34Z</time>
      </trkpt>
      <trkpt lat="45.59305" lon="5.73817">
        <ele>558</ele>
        <time>2010-03-28T12:41:44Z</time>
      </trkpt>
      <trkpt lat="45.59314" lon="5.73808">
        <ele>558</ele>
        <time>2010-03-28T12:41:48Z</time>
      </trkpt>
      <trkpt lat="45.59355" lon="5.73791">
        <ele>561</ele>
        <time>2010-03-28T12:42:01Z</time>
      </trkpt>
      <trkpt lat="45.59391" lon="5.73798">
        <ele>561</ele>
        <time>2010-03-28T12:42:13Z</time>
      </trkpt>
      <trkpt lat="45.59402" lon="5.73814">
        <ele>562</ele>
        <time>2010-03-28T12:42:19Z</time>
      </trkpt>
      <trkpt lat="45.59426" lon="5.7381">
        <ele>564</ele>
        <time>2010-03-28T12:42:32Z</time>
      </trkpt>
      <trkpt lat="45.59446" lon="5.73804">
        <ele>565</ele>
        <time>2010-03-28T12:42:45Z</time>
      </trkpt>
      <trkpt lat="45.59467" lon="5.73809">
        <ele>566</ele>
        <time>2010-03-28T12:42:57Z</time>
      </trkpt>
      <trkpt lat="45.59495" lon="5.73812">
        <ele>570</ele>
        <time>2010-03-28T12:43:13Z</time>
      </trkpt>
      <trkpt lat="45.59516" lon="5.73795">
        <ele>573</ele>
        <time>2010-03-28T12:43:29Z</time>
      </trkpt>
      <trkpt lat="45.5952" lon="5.73757">
        <ele>575</ele>
        <time>2010-03-28T12:43:45Z</time>
      </trkpt>
      <trkpt lat="45.59521" lon="5.73752">
        <ele>576</ele>
        <time>2010-03-28T12:43:47Z</time>
      </trkpt>
      <trkpt lat="45.59529" lon="5.73745">
        <ele>576</ele>
        <time>2010-03-28T12:43:59Z</time>
      </trkpt>
      <trkpt lat="45.59529" lon="5.73745">
        <ele>576</ele>
        <time>2010-03-28T12:44:28Z</time>
      </trkpt>
      <trkpt lat="45.59534" lon="5.73746">
        <ele>577</ele>
        <time>2010-03-28T12:45:19Z</time>
      </trkpt>
      <trkpt lat="45.59562" lon="5.73752">
        <ele>577</ele>
        <time>2010-03-28T12:45:34Z</time>
      </trkpt>
      <trkpt lat="45.59597" lon="5.7376">
        <ele>578</ele>
        <time>2010-03-28T12:45:49Z</time>
      </trkpt>
      <trkpt lat="45.59619" lon="5.73786">
        <ele>578</ele>
        <time>2010-03-28T12:46:01Z</time>
      </trkpt>
      <trkpt lat="45.59622" lon="5.7379">
        <ele>577</ele>
        <time>2010-03-28T12:46:02Z</time>
      </trkpt>
      <trkpt lat="45.59628" lon="5.738">
        <ele>576</ele>
        <time>2010-03-28T12:46:04Z</time>
      </trkpt>
      <trkpt lat="45.59653" lon="5.73806">
        <ele>574</ele>
        <time>2010-03-28T12:46:11Z</time>
      </trkpt>
      <trkpt lat="45.5966" lon="5.73797">
        <ele>573</ele>
        <time>2010-03-28T12:46:13Z</time>
      </trkpt>
      <trkpt lat="45.59687" lon="5.7374">
        <ele>570</ele>
        <time>2010-03-28T12:46:25Z</time>
      </trkpt>
      <trkpt lat="45.59715" lon="5.73716">
        <ele>572</ele>
        <time>2010-03-28T12:46:36Z</time>
      </trkpt>
      <trkpt lat="45.59749" lon="5.73708">
        <ele>575</ele>
        <time>2010-03-28T12:46:48Z</time>
      </trkpt>
      <trkpt lat="45.59789" lon="5.73704">
        <ele>574</ele>
        <time>2010-03-28T12:47:01Z</time>
      </trkpt>
      <trkpt lat="45.59809" lon="5.73676">
        <ele>575</ele>
        <time>2010-03-28T12:47:11Z</time>
      </trkpt>
      <trkpt lat="45.59824" lon="5.73653">
        <ele>572</ele>
        <time>2010-03-28T12:47:15Z</time>
      </trkpt>
      <trkpt lat="45.59836" lon="5.73642">
        <ele>570</ele>
        <time>2010-03-28T12:47:17Z</time>
      </trkpt>
      <trkpt lat="45.59885" lon="5.73587">
        <ele>569</ele>
        <time>2010-03-28T12:47:26Z</time>
      </trkpt>
      <trkpt lat="45.5989" lon="5.73586">
        <ele>569</ele>
        <time>2010-03-28T12:47:27Z</time>
      </trkpt>
      <trkpt lat="45.59941" lon="5.73577">
        <ele>572</ele>
        <time>2010-03-28T12:47:40Z</time>
      </trkpt>
      <trkpt lat="45.59963" lon="5.73573">
        <ele>573</ele>
        <time>2010-03-28T12:47:50Z</time>
      </trkpt>
      <trkpt lat="45.59996" lon="5.73535">
        <ele>575</ele>
        <time>2010-03-28T12:48:03Z</time>
      </trkpt>
      <trkpt lat="45.60006" lon="5.73508">
        <ele>576</ele>
        <time>2010-03-28T12:48:09Z</time>
      </trkpt>
      <trkpt lat="45.60024" lon="5.73502">
        <ele>576</ele>
        <time>2010-03-28T12:48:15Z</time>
      </trkpt>
      <trkpt lat="45.6004" lon="5.73444">
        <ele>579</ele>
        <time>2010-03-28T12:48:29Z</time>
      </trkpt>
      <trkpt lat="45.60046" lon="5.73424">
        <ele>580</ele>
        <time>2010-03-28T12:48:34Z</time>
      </trkpt>
      <trkpt lat="45.60059" lon="5.73421">
        <ele>580</ele>
        <time>2010-03-28T12:48:39Z</time>
      </trkpt>
      <trkpt lat="45.60092" lon="5.73461">
        <ele>582</ele>
        <time>2010-03-28T12:48:52Z</time>
      </trkpt>
      <trkpt lat="45.60133" lon="5.73535">
        <ele>585</ele>
        <time>2010-03-28T12:49:11Z</time>
      </trkpt>
      <trkpt lat="45.60148" lon="5.7359">
        <ele>587</ele>
        <time>2010-03-28T12:49:26Z</time>
      </trkpt>
      <trkpt lat="45.60157" lon="5.73634">
        <ele>592</ele>
        <time>2010-03-28T12:49:41Z</time>
      </trkpt>
      <trkpt lat="45.60157" lon="5.73674">
        <ele>596</ele>
        <time>2010-03-28T12:49:56Z</time>
      </trkpt>
      <trkpt lat="45.60159" lon="5.73683">
        <ele>597</ele>
        <time>2010-03-28T12:50:00Z</time>
      </trkpt>
      <trkpt lat="45.60162" lon="5.73685">
        <ele>598</ele>
        <time>2010-03-28T12:50:03Z</time>
      </trkpt>
      <trkpt lat="45.60171" lon="5.73676">
        <ele>598</ele>
        <time>2010-03-28T12:50:09Z</time>
      </trkpt>
      <trkpt lat="45.60199" lon="5.73652">
        <ele>600</ele>
        <time>2010-03-28T12:50:23Z</time>
      </trkpt>
      <trkpt lat="45.60233" lon="5.73617">
        <ele>603</ele>
        <time>2010-03-28T12:50:40Z</time>
      </trkpt>
      <trkpt lat="45.60255" lon="5.73584">
        <ele>606</ele>
        <time>2010-03-28T12:50:56Z</time>
      </trkpt>
      <trkpt lat="45.60274" lon="5.73559">
        <ele>608</ele>
        <time>2010-03-28T12:51:10Z</time>
      </trkpt>
      <trkpt lat="45.60291" lon="5.73548">
        <ele>606</ele>
        <time>2010-03-28T12:51:14Z</time>
      </trkpt>
      <trkpt lat="45.60327" lon="5.7354">
        <ele>608</ele>
        <time>2010-03-28T12:51:24Z</time>
      </trkpt>
      <trkpt lat="45.60363" lon="5.73533">
        <ele>611</ele>
        <time>2010-03-28T12:51:38Z</time>
      </trkpt>
      <trkpt lat="45.60416" lon="5.73525">
        <ele>611</ele>
        <time>2010-03-28T12:51:56Z</time>
      </trkpt>
      <trkpt lat="45.6047" lon="5.73519">
        <ele>612</ele>
        <time>2010-03-28T12:52:14Z</time>
      </trkpt>
      <trkpt lat="45.6051" lon="5.73523">
        <ele>613</ele>
        <time>2010-03-28T12:52:27Z</time>
      </trkpt>
      <trkpt lat="45.60516" lon="5.73505">
        <ele>614</ele>
        <time>2010-03-28T12:52:32Z</time>
      </trkpt>
      <trkpt lat="45.60505" lon="5.73444">
        <ele>614</ele>
        <time>2010-03-28T12:52:46Z</time>
      </trkpt>
      <trkpt lat="45.605" lon="5.73431">
        <ele>615</ele>
        <time>2010-03-28T12:52:50Z</time>
      </trkpt>
      <trkpt lat="45.60492" lon="5.73429">
        <ele>615</ele>
        <time>2010-03-28T12:52:54Z</time>
      </trkpt>
      <trkpt lat="45.60445" lon="5.73423">
        <ele>617</ele>
        <time>2010-03-28T12:53:12Z</time>
      </trkpt>
      <trkpt lat="45.60435" lon="5.73415">
        <ele>616</ele>
        <time>2010-03-28T12:53:18Z</time>
      </trkpt>
      <trkpt lat="45.60405" lon="5.7339">
        <ele>620</ele>
        <time>2010-03-28T12:53:34Z</time>
      </trkpt>
      <trkpt lat="45.60397" lon="5.73374">
        <ele>620</ele>
        <time>2010-03-28T12:53:40Z</time>
      </trkpt>
      <trkpt lat="45.6041" lon="5.73367">
        <ele>622</ele>
        <time>2010-03-28T12:53:49Z</time>
      </trkpt>
      <trkpt lat="45.60435" lon="5.73367">
        <ele>626</ele>
        <time>2010-03-28T12:54:05Z</time>
      </trkpt>
      <trkpt lat="45.60448" lon="5.73341">
        <ele>629</ele>
        <time>2010-03-28T12:54:19Z</time>
      </trkpt>
      <trkpt lat="45.60465" lon="5.73318">
        <ele>633</ele>
        <time>2010-03-28T12:54:34Z</time>
      </trkpt>
      <trkpt lat="45.60463" lon="5.73305">
        <ele>633</ele>
        <time>2010-03-28T12:54:40Z</time>
      </trkpt>
      <trkpt lat="45.60461" lon="5.73285">
        <ele>634</ele>
        <time>2010-03-28T12:54:51Z</time>
      </trkpt>
      <trkpt lat="45.6046" lon="5.73274">
        <ele>635</ele>
        <time>2010-03-28T12:54:57Z</time>
      </trkpt>
      <trkpt lat="45.60456" lon="5.73262">
        <ele>635</ele>
        <time>2010-03-28T12:55:04Z</time>
      </trkpt>
      <trkpt lat="45.60451" lon="5.73253">
        <ele>637</ele>
        <time>2010-03-28T12:55:09Z</time>
      </trkpt>
      <trkpt lat="45.60448" lon="5.73249">
        <ele>637</ele>
        <time>2010-03-28T12:55:12Z</time>
      </trkpt>
      <trkpt lat="45.60442" lon="5.73245">
        <ele>637</ele>
        <time>2010-03-28T12:55:16Z</time>
      </trkpt>
      <trkpt lat="45.60422" lon="5.73231">
        <ele>644</ele>
        <time>2010-03-28T12:55:32Z</time>
      </trkpt>
      <trkpt lat="45.60402" lon="5.73225">
        <ele>646</ele>
        <time>2010-03-28T12:55:45Z</time>
      </trkpt>
      <trkpt lat="45.60371" lon="5.73226">
        <ele>649</ele>
        <time>2010-03-28T12:56:03Z</time>
      </trkpt>
      <trkpt lat="45.60346" lon="5.73216">
        <ele>651</ele>
        <time>2010-03-28T12:56:18Z</time>
      </trkpt>
      <trkpt lat="45.60331" lon="5.73208">
        <ele>653</ele>
        <time>2010-03-28T12:56:27Z</time>
      </trkpt>
      <trkpt lat="45.60301" lon="5.73191">
        <ele>655</ele>
        <time>2010-03-28T12:56:49Z</time>
      </trkpt>
      <trkpt lat="45.60289" lon="5.73181">
        <ele>657</ele>
        <time>2010-03-28T12:56:57Z</time>
      </trkpt>
      <trkpt lat="45.60266" lon="5.73165">
        <ele>662</ele>
        <time>2010-03-28T12:57:14Z</time>
      </trkpt>
      <trkpt lat="45.60243" lon="5.73149">
        <ele>666</ele>
        <time>2010-03-28T12:57:32Z</time>
      </trkpt>
      <trkpt lat="45.60232" lon="5.73132">
        <ele>668</ele>
        <time>2010-03-28T12:57:44Z</time>
      </trkpt>
      <trkpt lat="45.60229" lon="5.73125">
        <ele>670</ele>
        <time>2010-03-28T12:57:48Z</time>
      </trkpt>
      <trkpt lat="45.60231" lon="5.73101">
        <ele>674</ele>
        <time>2010-03-28T12:58:03Z</time>
      </trkpt>
      <trkpt lat="45.60233" lon="5.73098">
        <ele>674</ele>
        <time>2010-03-28T12:58:06Z</time>
      </trkpt>
      <trkpt lat="45.60236" lon="5.73097">
        <ele>676</ele>
        <time>2010-03-28T12:58:09Z</time>
      </trkpt>
      <trkpt lat="45.60243" lon="5.73095">
        <ele>682</ele>
        <time>2010-03-28T12:58:19Z</time>
      </trkpt>
      <trkpt lat="45.60249" lon="5.73095">
        <ele>684</ele>
        <time>2010-03-28T12:58:32Z</time>
      </trkpt>
      <trkpt lat="45.60252" lon="5.73096">
        <ele>683</ele>
        <time>2010-03-28T12:59:18Z</time>
      </trkpt>
      <trkpt lat="45.60255" lon="5.73095">
        <ele>684</ele>
        <time>2010-03-28T12:59:21Z</time>
      </trkpt>
      <trkpt lat="45.6029" lon="5.73103">
        <ele>686</ele>
        <time>2010-03-28T12:59:44Z</time>
      </trkpt>
      <trkpt lat="45.60297" lon="5.73106">
        <ele>687</ele>
        <time>2010-03-28T12:59:49Z</time>
      </trkpt>
      <trkpt lat="45.60305" lon="5.73114">
        <ele>691</ele>
        <time>2010-03-28T12:59:56Z</time>
      </trkpt>
      <trkpt lat="45.60317" lon="5.73123">
        <ele>695</ele>
        <time>2010-03-28T13:00:05Z</time>
      </trkpt>
      <trkpt lat="45.60339" lon="5.73131">
        <ele>699</ele>
        <time>2010-03-28T13:00:20Z</time>
      </trkpt>
      <trkpt lat="45.60342" lon="5.73132">
        <ele>700</ele>
        <time>2010-03-28T13:00:22Z</time>
      </trkpt>
      <trkpt lat="45.60364" lon="5.73133">
        <ele>701</ele>
        <time>2010-03-28T13:00:36Z</time>
      </trkpt>
      <trkpt lat="45.60365" lon="5.73133">
        <ele>701</ele>
        <time>2010-03-28T13:00:37Z</time>
      </trkpt>
      <trkpt lat="45.60386" lon="5.73123">
        <ele>700</ele>
        <time>2010-03-28T13:00:51Z</time>
      </trkpt>
      <trkpt lat="45.60387" lon="5.73122">
        <ele>700</ele>
        <time>2010-03-28T13:00:52Z</time>
      </trkpt>
      <trkpt lat="45.604" lon="5.73105">
        <ele>700</ele>
        <time>2010-03-28T13:01:05Z</time>
      </trkpt>
      <trkpt lat="45.60402" lon="5.73103">
        <ele>701</ele>
        <time>2010-03-28T13:01:09Z</time>
      </trkpt>
      <trkpt lat="45.60422" lon="5.73086">
        <ele>709</ele>
        <time>2010-03-28T13:01:28Z</time>
      </trkpt>
      <trkpt lat="45.60428" lon="5.7308">
        <ele>710</ele>
        <time>2010-03-28T13:01:32Z</time>
      </trkpt>
      <trkpt lat="45.60431" lon="5.73079">
        <ele>711</ele>
        <time>2010-03-28T13:01:34Z</time>
      </trkpt>
      <trkpt lat="45.60447" lon="5.7306">
        <ele>712</ele>
        <time>2010-03-28T13:01:47Z</time>
      </trkpt>
      <trkpt lat="45.60461" lon="5.73036">
        <ele>711</ele>
        <time>2010-03-28T13:02:01Z</time>
      </trkpt>
      <trkpt lat="45.6047" lon="5.73016">
        <ele>713</ele>
        <time>2010-03-28T13:02:13Z</time>
      </trkpt>
      <trkpt lat="45.60471" lon="5.73011">
        <ele>713</ele>
        <time>2010-03-28T13:02:27Z</time>
      </trkpt>
      <trkpt lat="45.6048" lon="5.7299">
        <ele>713</ele>
        <time>2010-03-28T13:03:13Z</time>
      </trkpt>
      <trkpt lat="45.60482" lon="5.72988">
        <ele>713</ele>
        <time>2010-03-28T13:03:15Z</time>
      </trkpt>
      <trkpt lat="45.60485" lon="5.72983">
        <ele>713</ele>
        <time>2010-03-28T13:03:19Z</time>
      </trkpt>
      <trkpt lat="45.60489" lon="5.72971">
        <ele>714</ele>
        <time>2010-03-28T13:03:26Z</time>
      </trkpt>
      <trkpt lat="45.6049" lon="5.72964">
        <ele>714</ele>
        <time>2010-03-28T13:03:30Z</time>
      </trkpt>
      <trkpt lat="45.60481" lon="5.72959">
        <ele>713</ele>
        <time>2010-03-28T13:03:40Z</time>
      </trkpt>
      <trkpt lat="45.60478" lon="5.7296">
        <ele>713</ele>
        <time>2010-03-28T13:03:43Z</time>
      </trkpt>
      <trkpt lat="45.60472" lon="5.72965">
        <ele>714</ele>
        <time>2010-03-28T13:03:51Z</time>
      </trkpt>
      <trkpt lat="45.60468" lon="5.7297">
        <ele>714</ele>
        <time>2010-03-28T13:03:55Z</time>
      </trkpt>
      <trkpt lat="45.60457" lon="5.72976">
        <ele>715</ele>
        <time>2010-03-28T13:04:04Z</time>
      </trkpt>
      <trkpt lat="45.60441" lon="5.72977">
        <ele>718</ele>
        <time>2010-03-28T13:04:16Z</time>
      </trkpt>
      <trkpt lat="45.60436" lon="5.72975">
        <ele>719</ele>
        <time>2010-03-28T13:04:20Z</time>
      </trkpt>
      <trkpt lat="45.60427" lon="5.72973">
        <ele>721</ele>
        <time>2010-03-28T13:04:28Z</time>
      </trkpt>
      <trkpt lat="45.60409" lon="5.72964">
        <ele>724</ele>
        <time>2010-03-28T13:04:43Z</time>
      </trkpt>
      <trkpt lat="45.60398" lon="5.72954">
        <ele>724</ele>
        <time>2010-03-28T13:04:52Z</time>
      </trkpt>
      <trkpt lat="45.6039" lon="5.72947">
        <ele>725</ele>
        <time>2010-03-28T13:04:59Z</time>
      </trkpt>
      <trkpt lat="45.60381" lon="5.72936">
        <ele>726</ele>
        <time>2010-03-28T13:05:07Z</time>
      </trkpt>
      <trkpt lat="45.60372" lon="5.72932">
        <ele>728</ele>
        <time>2010-03-28T13:05:14Z</time>
      </trkpt>
      <trkpt lat="45.60363" lon="5.72926">
        <ele>728</ele>
        <time>2010-03-28T13:05:21Z</time>
      </trkpt>
      <trkpt lat="45.60356" lon="5.7292">
        <ele>728</ele>
        <time>2010-03-28T13:05:27Z</time>
      </trkpt>
      <trkpt lat="45.60337" lon="5.72905">
        <ele>728</ele>
        <time>2010-03-28T13:05:42Z</time>
      </trkpt>
      <trkpt lat="45.60331" lon="5.72899">
        <ele>728</ele>
        <time>2010-03-28T13:05:46Z</time>
      </trkpt>
      <trkpt lat="45.60304" lon="5.72884">
        <ele>732</ele>
        <time>2010-03-28T13:06:01Z</time>
      </trkpt>
      <trkpt lat="45.60278" lon="5.72872">
        <ele>732</ele>
        <time>2010-03-28T13:06:14Z</time>
      </trkpt>
      <trkpt lat="45.60264" lon="5.72838">
        <ele>732</ele>
        <time>2010-03-28T13:06:24Z</time>
      </trkpt>
      <trkpt lat="45.60277" lon="5.72805">
        <ele>729</ele>
        <time>2010-03-28T13:06:35Z</time>
      </trkpt>
      <trkpt lat="45.60278" lon="5.72801">
        <ele>728</ele>
        <time>2010-03-28T13:06:43Z</time>
      </trkpt>
      <trkpt lat="45.60278" lon="5.728">
        <ele>728</ele>
        <time>2010-03-28T13:07:16Z</time>
      </trkpt>
      <trkpt lat="45.60278" lon="5.72801">
        <ele>728</ele>
        <time>2010-03-28T13:08:22Z</time>
      </trkpt>
      <trkpt lat="45.60278" lon="5.728">
        <ele>728</ele>
        <time>2010-03-28T13:09:02Z</time>
      </trkpt>
      <trkpt lat="45.60299" lon="5.72795">
        <ele>727</ele>
        <time>2010-03-28T13:09:14Z</time>
      </trkpt>
      <trkpt lat="45.60312" lon="5.72802">
        <ele>725</ele>
        <time>2010-03-28T13:09:20Z</time>
      </trkpt>
      <trkpt lat="45.60349" lon="5.72799">
        <ele>722</ele>
        <time>2010-03-28T13:09:33Z</time>
      </trkpt>
      <trkpt lat="45.60374" lon="5.72816">
        <ele>722</ele>
        <time>2010-03-28T13:09:43Z</time>
      </trkpt>
      <trkpt lat="45.60406" lon="5.72827">
        <ele>719</ele>
        <time>2010-03-28T13:09:51Z</time>
      </trkpt>
      <trkpt lat="45.60435" lon="5.72818">
        <ele>717</ele>
        <time>2010-03-28T13:09:58Z</time>
      </trkpt>
      <trkpt lat="45.60439" lon="5.72806">
        <ele>717</ele>
        <time>2010-03-28T13:10:02Z</time>
      </trkpt>
      <trkpt lat="45.60443" lon="5.72771">
        <ele>714</ele>
        <time>2010-03-28T13:10:13Z</time>
      </trkpt>
      <trkpt lat="45.60443" lon="5.72769">
        <ele>713</ele>
        <time>2010-03-28T13:10:34Z</time>
      </trkpt>
      <trkpt lat="45.60444" lon="5.72768">
        <ele>714</ele>
        <time>2010-03-28T13:10:55Z</time>
      </trkpt>
      <trkpt lat="45.6045" lon="5.72759">
        <ele>716</ele>
        <time>2010-03-28T13:11:31Z</time>
      </trkpt>
      <trkpt lat="45.60458" lon="5.72745">
        <ele>717</ele>
        <time>2010-03-28T13:11:39Z</time>
      </trkpt>
      <trkpt lat="45.60464" lon="5.72735">
        <ele>722</ele>
        <time>2010-03-28T13:11:45Z</time>
      </trkpt>
      <trkpt lat="45.60469" lon="5.72724">
        <ele>726</ele>
        <time>2010-03-28T13:11:51Z</time>
      </trkpt>
      <trkpt lat="45.60471" lon="5.72717">
        <ele>727</ele>
        <time>2010-03-28T13:11:55Z</time>
      </trkpt>
      <trkpt lat="45.60472" lon="5.72693">
        <ele>731</ele>
        <time>2010-03-28T13:12:07Z</time>
      </trkpt>
      <trkpt lat="45.60476" lon="5.7268">
        <ele>734</ele>
        <time>2010-03-28T13:12:15Z</time>
      </trkpt>
      <trkpt lat="45.60487" lon="5.72675">
        <ele>736</ele>
        <time>2010-03-28T13:12:23Z</time>
      </trkpt>
      <trkpt lat="45.60491" lon="5.72676">
        <ele>736</ele>
        <time>2010-03-28T13:12:26Z</time>
      </trkpt>
      <trkpt lat="45.60507" lon="5.72693">
        <ele>739</ele>
        <time>2010-03-28T13:12:41Z</time>
      </trkpt>
      <trkpt lat="45.6052" lon="5.72698">
        <ele>741</ele>
        <time>2010-03-28T13:12:49Z</time>
      </trkpt>
      <trkpt lat="45.60544" lon="5.72698">
        <ele>741</ele>
        <time>2010-03-28T13:13:01Z</time>
      </trkpt>
      <trkpt lat="45.60566" lon="5.72708">
        <ele>745</ele>
        <time>2010-03-28T13:13:13Z</time>
      </trkpt>
      <trkpt lat="45.6058" lon="5.72705">
        <ele>747</ele>
        <time>2010-03-28T13:13:21Z</time>
      </trkpt>
      <trkpt lat="45.60595" lon="5.72702">
        <ele>748</ele>
        <time>2010-03-28T13:13:28Z</time>
      </trkpt>
      <trkpt lat="45.60602" lon="5.72702">
        <ele>747</ele>
        <time>2010-03-28T13:13:31Z</time>
      </trkpt>
      <trkpt lat="45.60623" lon="5.72704">
        <ele>746</ele>
        <time>2010-03-28T13:13:39Z</time>
      </trkpt>
      <trkpt lat="45.60628" lon="5.72707">
        <ele>746</ele>
        <time>2010-03-28T13:13:41Z</time>
      </trkpt>
      <trkpt lat="45.60637" lon="5.72713">
        <ele>745</ele>
        <time>2010-03-28T13:13:45Z</time>
      </trkpt>
      <trkpt lat="45.60648" lon="5.7272">
        <ele>744</ele>
        <time>2010-03-28T13:13:55Z</time>
      </trkpt>
      <trkpt lat="45.60653" lon="5.72719">
        <ele>743</ele>
        <time>2010-03-28T13:14:00Z</time>
      </trkpt>
      <trkpt lat="45.60659" lon="5.72723">
        <ele>743</ele>
        <time>2010-03-28T13:14:03Z</time>
      </trkpt>
      <trkpt lat="45.60669" lon="5.72733">
        <ele>740</ele>
        <time>2010-03-28T13:14:07Z</time>
      </trkpt>
      <trkpt lat="45.60676" lon="5.7274">
        <ele>736</ele>
        <time>2010-03-28T13:14:16Z</time>
      </trkpt>
      <trkpt lat="45.60682" lon="5.72738">
        <ele>737</ele>
        <time>2010-03-28T13:23:37Z</time>
      </trkpt>
      <trkpt lat="45.60682" lon="5.7274">
        <ele>737</ele>
        <time>2010-03-28T13:24:10Z</time>
      </trkpt>
      <trkpt lat="45.6068" lon="5.72741">
        <ele>738</ele>
        <time>2010-03-28T13:24:59Z</time>
      </trkpt>
      <trkpt lat="45.60683" lon="5.72743">
        <ele>739</ele>
        <time>2010-03-28T13:25:04Z</time>
      </trkpt>
      <trkpt lat="45.60693" lon="5.7275">
        <ele>741</ele>
        <time>2010-03-28T13:25:10Z</time>
      </trkpt>
      <trkpt lat="45.60705" lon="5.72752">
        <ele>740</ele>
        <time>2010-03-28T13:25:15Z</time>
      </trkpt>
      <trkpt lat="45.60716" lon="5.72748">
        <ele>741</ele>
        <time>2010-03-28T13:25:19Z</time>
      </trkpt>
      <trkpt lat="45.60734" lon="5.72721">
        <ele>741</ele>
        <time>2010-03-28T13:25:29Z</time>
      </trkpt>
      <trkpt lat="45.60757" lon="5.72691">
        <ele>742</ele>
        <time>2010-03-28T13:25:41Z</time>
      </trkpt>
      <trkpt lat="45.60759" lon="5.72687">
        <ele>743</ele>
        <time>2010-03-28T13:25:42Z</time>
      </trkpt>
      <trkpt lat="45.60784" lon="5.72669">
        <ele>742</ele>
        <time>2010-03-28T13:25:53Z</time>
      </trkpt>
      <trkpt lat="45.60804" lon="5.72657">
        <ele>744</ele>
        <time>2010-03-28T13:26:02Z</time>
      </trkpt>
      <trkpt lat="45.60828" lon="5.7263">
        <ele>745</ele>
        <time>2010-03-28T13:26:13Z</time>
      </trkpt>
      <trkpt lat="45.6084" lon="5.72608">
        <ele>745</ele>
        <time>2010-03-28T13:26:23Z</time>
      </trkpt>
      <trkpt lat="45.60855" lon="5.72579">
        <ele>742</ele>
        <time>2010-03-28T13:26:35Z</time>
      </trkpt>
      <trkpt lat="45.60862" lon="5.72569">
        <ele>742</ele>
        <time>2010-03-28T13:26:41Z</time>
      </trkpt>
      <trkpt lat="45.60866" lon="5.72555">
        <ele>744</ele>
        <time>2010-03-28T13:26:47Z</time>
      </trkpt>
      <trkpt lat="45.60874" lon="5.7255">
        <ele>748</ele>
        <time>2010-03-28T13:26:52Z</time>
      </trkpt>
      <trkpt lat="45.60899" lon="5.72533">
        <ele>754</ele>
        <time>2010-03-28T13:27:08Z</time>
      </trkpt>
      <trkpt lat="45.60901" lon="5.72521">
        <ele>755</ele>
        <time>2010-03-28T13:27:13Z</time>
      </trkpt>
      <trkpt lat="45.609" lon="5.72512">
        <ele>755</ele>
        <time>2010-03-28T13:27:17Z</time>
      </trkpt>
      <trkpt lat="45.60888" lon="5.72504">
        <ele>757</ele>
        <time>2010-03-28T13:27:27Z</time>
      </trkpt>
      <trkpt lat="45.60881" lon="5.72504">
        <ele>758</ele>
        <time>2010-03-28T13:27:35Z</time>
      </trkpt>
      <trkpt lat="45.60862" lon="5.72483">
        <ele>756</ele>
        <time>2010-03-28T13:27:45Z</time>
      </trkpt>
      <trkpt lat="45.60853" lon="5.72452">
        <ele>754</ele>
        <time>2010-03-28T13:27:53Z</time>
      </trkpt>
      <trkpt lat="45.60853" lon="5.72422">
        <ele>751</ele>
        <time>2010-03-28T13:27:58Z</time>
      </trkpt>
      <trkpt lat="45.60846" lon="5.72381">
        <ele>748</ele>
        <time>2010-03-28T13:28:04Z</time>
      </trkpt>
      <trkpt lat="45.60824" lon="5.72343">
        <ele>745</ele>
        <time>2010-03-28T13:28:13Z</time>
      </trkpt>
      <trkpt lat="45.60793" lon="5.72315">
        <ele>742</ele>
        <time>2010-03-28T13:28:24Z</time>
      </trkpt>
      <trkpt lat="45.60793" lon="5.72267">
        <ele>738</ele>
        <time>2010-03-28T13:28:33Z</time>
      </trkpt>
      <trkpt lat="45.60802" lon="5.72207">
        <ele>729</ele>
        <time>2010-03-28T13:28:45Z</time>
      </trkpt>
      <trkpt lat="45.60798" lon="5.72189">
        <ele>725</ele>
        <time>2010-03-28T13:28:49Z</time>
      </trkpt>
      <trkpt lat="45.60797" lon="5.72174">
        <ele>722</ele>
        <time>2010-03-28T13:28:52Z</time>
      </trkpt>
      <trkpt lat="45.60802" lon="5.72144">
        <ele>718</ele>
        <time>2010-03-28T13:28:57Z</time>
      </trkpt>
      <trkpt lat="45.60808" lon="5.72099">
        <ele>712</ele>
        <time>2010-03-28T13:29:04Z</time>
      </trkpt>
      <trkpt lat="45.60804" lon="5.72083">
        <ele>710</ele>
        <time>2010-03-28T13:29:06Z</time>
      </trkpt>
      <trkpt lat="45.60801" lon="5.72057">
        <ele>706</ele>
        <time>2010-03-28T13:29:09Z</time>
      </trkpt>
      <trkpt lat="45.60804" lon="5.72013">
        <ele>699</ele>
        <time>2010-03-28T13:29:16Z</time>
      </trkpt>
      <trkpt lat="45.60824" lon="5.71985">
        <ele>691</ele>
        <time>2010-03-28T13:29:26Z</time>
      </trkpt>
      <trkpt lat="45.60828" lon="5.71947">
        <ele>683</ele>
        <time>2010-03-28T13:29:36Z</time>
      </trkpt>
      <trkpt lat="45.60837" lon="5.71915">
        <ele>684</ele>
        <time>2010-03-28T13:29:45Z</time>
      </trkpt>
      <trkpt lat="45.60848" lon="5.71885">
        <ele>686</ele>
        <time>2010-03-28T13:29:53Z</time>
      </trkpt>
      <trkpt lat="45.60852" lon="5.71878">
        <ele>686</ele>
        <time>2010-03-28T13:29:55Z</time>
      </trkpt>
      <trkpt lat="45.60866" lon="5.71847">
        <ele>688</ele>
        <time>2010-03-28T13:30:03Z</time>
      </trkpt>
      <trkpt lat="45.60878" lon="5.71825">
        <ele>688</ele>
        <time>2010-03-28T13:30:09Z</time>
      </trkpt>
      <trkpt lat="45.609" lon="5.71803">
        <ele>694</ele>
        <time>2010-03-28T13:30:16Z</time>
      </trkpt>
      <trkpt lat="45.6092" lon="5.71824">
        <ele>720</ele>
        <time>2010-03-28T13:30:27Z</time>
      </trkpt>
      <trkpt lat="45.60945" lon="5.71858">
        <ele>726</ele>
        <time>2010-03-28T13:30:37Z</time>
      </trkpt>
      <trkpt lat="45.60977" lon="5.71845">
        <ele>727</ele>
        <time>2010-03-28T13:30:48Z</time>
      </trkpt>
      <trkpt lat="45.61002" lon="5.71833">
        <ele>730</ele>
        <time>2010-03-28T13:30:57Z</time>
      </trkpt>
      <trkpt lat="45.61008" lon="5.71832">
        <ele>730</ele>
        <time>2010-03-28T13:30:59Z</time>
      </trkpt>
      <trkpt lat="45.61034" lon="5.7184">
        <ele>732</ele>
        <time>2010-03-28T13:31:09Z</time>
      </trkpt>
      <trkpt lat="45.61037" lon="5.7185">
        <ele>732</ele>
        <time>2010-03-28T13:31:12Z</time>
      </trkpt>
      <trkpt lat="45.61062" lon="5.71853">
        <ele>735</ele>
        <time>2010-03-28T13:31:22Z</time>
      </trkpt>
      <trkpt lat="45.61099" lon="5.71851">
        <ele>742</ele>
        <time>2010-03-28T13:31:37Z</time>
      </trkpt>
      <trkpt lat="45.61133" lon="5.71835">
        <ele>745</ele>
        <time>2010-03-28T13:31:52Z</time>
      </trkpt>
      <trkpt lat="45.6115" lon="5.71827">
        <ele>746</ele>
        <time>2010-03-28T13:32:03Z</time>
      </trkpt>
      <trkpt lat="45.61161" lon="5.71823">
        <ele>748</ele>
        <time>2010-03-28T13:32:10Z</time>
      </trkpt>
      <trkpt lat="45.61168" lon="5.71821">
        <ele>749</ele>
        <time>2010-03-28T13:32:15Z</time>
      </trkpt>
      <trkpt lat="45.61193" lon="5.71809">
        <ele>749</ele>
        <time>2010-03-28T13:32:27Z</time>
      </trkpt>
      <trkpt lat="45.61215" lon="5.7177">
        <ele>745</ele>
        <time>2010-03-28T13:32:39Z</time>
      </trkpt>
      <trkpt lat="45.61236" lon="5.71735">
        <ele>743</ele>
        <time>2010-03-28T13:32:49Z</time>
      </trkpt>
      <trkpt lat="45.61272" lon="5.71711">
        <ele>742</ele>
        <time>2010-03-28T13:33:00Z</time>
      </trkpt>
      <trkpt lat="45.613" lon="5.71702">
        <ele>745</ele>
        <time>2010-03-28T13:33:14Z</time>
      </trkpt>
      <trkpt lat="45.61317" lon="5.7181">
        <ele>741</ele>
        <time>2010-03-28T13:33:27Z</time>
      </trkpt>
      <trkpt lat="45.61318" lon="5.71859">
        <ele>740</ele>
        <time>2010-03-28T13:33:32Z</time>
      </trkpt>
      <trkpt lat="45.61315" lon="5.71883">
        <ele>740</ele>
        <time>2010-03-28T13:33:35Z</time>
      </trkpt>
      <trkpt lat="45.61312" lon="5.71902">
        <ele>740</ele>
        <time>2010-03-28T13:33:38Z</time>
      </trkpt>
      <trkpt lat="45.61296" lon="5.71977">
        <ele>742</ele>
        <time>2010-03-28T13:33:53Z</time>
      </trkpt>
      <trkpt lat="45.61303" lon="5.72016">
        <ele>743</ele>
        <time>2010-03-28T13:34:01Z</time>
      </trkpt>
      <trkpt lat="45.61317" lon="5.72019">
        <ele>743</ele>
        <time>2010-03-28T13:34:05Z</time>
      </trkpt>
      <trkpt lat="45.61362" lon="5.72006">
        <ele>747</ele>
        <time>2010-03-28T13:34:20Z</time>
      </trkpt>
      <trkpt lat="45.61408" lon="5.71987">
        <ele>750</ele>
        <time>2010-03-28T13:34:37Z</time>
      </trkpt>
      <trkpt lat="45.61415" lon="5.7198">
        <ele>752</ele>
        <time>2010-03-28T13:34:41Z</time>
      </trkpt>
      <trkpt lat="45.61439" lon="5.71957">
        <ele>756</ele>
        <time>2010-03-28T13:34:57Z</time>
      </trkpt>
      <trkpt lat="45.61443" lon="5.71956">
        <ele>758</ele>
        <time>2010-03-28T13:35:00Z</time>
      </trkpt>
      <trkpt lat="45.61448" lon="5.71953">
        <ele>759</ele>
        <time>2010-03-28T13:35:04Z</time>
      </trkpt>
      <trkpt lat="45.61464" lon="5.71932">
        <ele>762</ele>
        <time>2010-03-28T13:35:17Z</time>
      </trkpt>
      <trkpt lat="45.61477" lon="5.7191">
        <ele>764</ele>
        <time>2010-03-28T13:35:28Z</time>
      </trkpt>
      <trkpt lat="45.61506" lon="5.7188">
        <ele>764</ele>
        <time>2010-03-28T13:35:43Z</time>
      </trkpt>
      <trkpt lat="45.61545" lon="5.71846">
        <ele>763</ele>
        <time>2010-03-28T13:35:56Z</time>
      </trkpt>
      <trkpt lat="45.61572" lon="5.71817">
        <ele>762</ele>
        <time>2010-03-28T13:36:04Z</time>
      </trkpt>
      <trkpt lat="45.61604" lon="5.71803">
        <ele>761</ele>
        <time>2010-03-28T13:36:11Z</time>
      </trkpt>
      <trkpt lat="45.61613" lon="5.71803">
        <ele>760</ele>
        <time>2010-03-28T13:36:13Z</time>
      </trkpt>
      <trkpt lat="45.61671" lon="5.7181">
        <ele>760</ele>
        <time>2010-03-28T13:36:25Z</time>
      </trkpt>
      <trkpt lat="45.61691" lon="5.71804">
        <ele>760</ele>
        <time>2010-03-28T13:36:29Z</time>
      </trkpt>
      <trkpt lat="45.61705" lon="5.71795">
        <ele>760</ele>
        <time>2010-03-28T13:36:32Z</time>
      </trkpt>
      <trkpt lat="45.61725" lon="5.71793">
        <ele>760</ele>
        <time>2010-03-28T13:36:36Z</time>
      </trkpt>
      <trkpt lat="45.61734" lon="5.71795">
        <ele>760</ele>
        <time>2010-03-28T13:36:38Z</time>
      </trkpt>
      <trkpt lat="45.6176" lon="5.71799">
        <ele>760</ele>
        <time>2010-03-28T13:36:44Z</time>
      </trkpt>
      <trkpt lat="45.618" lon="5.71808">
        <ele>758</ele>
        <time>2010-03-28T13:36:54Z</time>
      </trkpt>
      <trkpt lat="45.61855" lon="5.71815">
        <ele>760</ele>
        <time>2010-03-28T13:37:08Z</time>
      </trkpt>
      <trkpt lat="45.61896" lon="5.71794">
        <ele>762</ele>
        <time>2010-03-28T13:37:21Z</time>
      </trkpt>
      <trkpt lat="45.61926" lon="5.71764">
        <ele>766</ele>
        <time>2010-03-28T13:37:34Z</time>
      </trkpt>
      <trkpt lat="45.61943" lon="5.71757">
        <ele>765</ele>
        <time>2010-03-28T13:37:43Z</time>
      </trkpt>
      <trkpt lat="45.61955" lon="5.71753">
        <ele>764</ele>
        <time>2010-03-28T13:37:49Z</time>
      </trkpt>
      <trkpt lat="45.61979" lon="5.7172">
        <ele>767</ele>
        <time>2010-03-28T13:38:03Z</time>
      </trkpt>
      <trkpt lat="45.61988" lon="5.71701">
        <ele>768</ele>
        <time>2010-03-28T13:38:12Z</time>
      </trkpt>
      <trkpt lat="45.61994" lon="5.71695">
        <ele>769</ele>
        <time>2010-03-28T13:38:17Z</time>
      </trkpt>
      <trkpt lat="45.62011" lon="5.71684">
        <ele>772</ele>
        <time>2010-03-28T13:38:28Z</time>
      </trkpt>
      <trkpt lat="45.62021" lon="5.71681">
        <ele>773</ele>
        <time>2010-03-28T13:38:33Z</time>
      </trkpt>
      <trkpt lat="45.6205" lon="5.71684">
        <ele>778</ele>
        <time>2010-03-28T13:38:46Z</time>
      </trkpt>
      <trkpt lat="45.62054" lon="5.71697">
        <ele>777</ele>
        <time>2010-03-28T13:38:50Z</time>
      </trkpt>
      <trkpt lat="45.62067" lon="5.71719">
        <ele>776</ele>
        <time>2010-03-28T13:38:59Z</time>
      </trkpt>
      <trkpt lat="45.62085" lon="5.71762">
        <ele>778</ele>
        <time>2010-03-28T13:39:13Z</time>
      </trkpt>
      <trkpt lat="45.62086" lon="5.71764">
        <ele>778</ele>
        <time>2010-03-28T13:39:14Z</time>
      </trkpt>
      <trkpt lat="45.62093" lon="5.71774">
        <ele>775</ele>
        <time>2010-03-28T13:39:19Z</time>
      </trkpt>
      <trkpt lat="45.62096" lon="5.71781">
        <ele>774</ele>
        <time>2010-03-28T13:39:23Z</time>
      </trkpt>
      <trkpt lat="45.62104" lon="5.71796">
        <ele>766</ele>
        <time>2010-03-28T13:39:38Z</time>
      </trkpt>
      <trkpt lat="45.6211" lon="5.71801">
        <ele>764</ele>
        <time>2010-03-28T13:39:53Z</time>
      </trkpt>
      <trkpt lat="45.62116" lon="5.71809">
        <ele>766</ele>
        <time>2010-03-28T13:40:05Z</time>
      </trkpt>
      <trkpt lat="45.62121" lon="5.71812">
        <ele>765</ele>
        <time>2010-03-28T13:40:15Z</time>
      </trkpt>
      <trkpt lat="45.62127" lon="5.71817">
        <ele>766</ele>
        <time>2010-03-28T13:40:19Z</time>
      </trkpt>
      <trkpt lat="45.6214" lon="5.71839">
        <ele>772</ele>
        <time>2010-03-28T13:40:35Z</time>
      </trkpt>
      <trkpt lat="45.6214" lon="5.71843">
        <ele>773</ele>
        <time>2010-03-28T13:40:39Z</time>
      </trkpt>
      <trkpt lat="45.62144" lon="5.71856">
        <ele>776</ele>
        <time>2010-03-28T13:40:50Z</time>
      </trkpt>
      <trkpt lat="45.62144" lon="5.71859">
        <ele>777</ele>
        <time>2010-03-28T13:41:22Z</time>
      </trkpt>
      <trkpt lat="45.62144" lon="5.71861">
        <ele>778</ele>
        <time>2010-03-28T13:41:26Z</time>
      </trkpt>
      <trkpt lat="45.62148" lon="5.71868">
        <ele>780</ele>
        <time>2010-03-28T13:41:30Z</time>
      </trkpt>
      <trkpt lat="45.62154" lon="5.71872">
        <ele>782</ele>
        <time>2010-03-28T13:41:35Z</time>
      </trkpt>
      <trkpt lat="45.62172" lon="5.71865">
        <ele>783</ele>
        <time>2010-03-28T13:41:49Z</time>
      </trkpt>
      <trkpt lat="45.62175" lon="5.71863">
        <ele>783</ele>
        <time>2010-03-28T13:41:52Z</time>
      </trkpt>
      <trkpt lat="45.62186" lon="5.71847">
        <ele>785</ele>
        <time>2010-03-28T13:42:04Z</time>
      </trkpt>
      <trkpt lat="45.62199" lon="5.71848">
        <ele>786</ele>
        <time>2010-03-28T13:42:14Z</time>
      </trkpt>
      <trkpt lat="45.62205" lon="5.71849">
        <ele>787</ele>
        <time>2010-03-28T13:42:18Z</time>
      </trkpt>
      <trkpt lat="45.62217" lon="5.7184">
        <ele>790</ele>
        <time>2010-03-28T13:42:28Z</time>
      </trkpt>
      <trkpt lat="45.62224" lon="5.71838">
        <ele>791</ele>
        <time>2010-03-28T13:42:41Z</time>
      </trkpt>
      <trkpt lat="45.62231" lon="5.71833">
        <ele>793</ele>
        <time>2010-03-28T13:42:59Z</time>
      </trkpt>
      <trkpt lat="45.62237" lon="5.71826">
        <ele>794</ele>
        <time>2010-03-28T13:43:11Z</time>
      </trkpt>
      <trkpt lat="45.62249" lon="5.71819">
        <ele>798</ele>
        <time>2010-03-28T13:43:25Z</time>
      </trkpt>
      <trkpt lat="45.62264" lon="5.71816">
        <ele>797</ele>
        <time>2010-03-28T13:43:51Z</time>
      </trkpt>
      <trkpt lat="45.62282" lon="5.71817">
        <ele>798</ele>
        <time>2010-03-28T13:44:02Z</time>
      </trkpt>
      <trkpt lat="45.6229" lon="5.71804">
        <ele>800</ele>
        <time>2010-03-28T13:44:10Z</time>
      </trkpt>
      <trkpt lat="45.62304" lon="5.71779">
        <ele>802</ele>
        <time>2010-03-28T13:44:24Z</time>
      </trkpt>
      <trkpt lat="45.62302" lon="5.71766">
        <ele>801</ele>
        <time>2010-03-28T13:44:30Z</time>
      </trkpt>
      <trkpt lat="45.62306" lon="5.71738">
        <ele>796</ele>
        <time>2010-03-28T13:44:44Z</time>
      </trkpt>
      <trkpt lat="45.62305" lon="5.7173">
        <ele>795</ele>
        <time>2010-03-28T13:44:48Z</time>
      </trkpt>
      <trkpt lat="45.62305" lon="5.71714">
        <ele>795</ele>
        <time>2010-03-28T13:44:55Z</time>
      </trkpt>
      <trkpt lat="45.62309" lon="5.71696">
        <ele>792</ele>
        <time>2010-03-28T13:45:08Z</time>
      </trkpt>
      <trkpt lat="45.62306" lon="5.71698">
        <ele>785</ele>
        <time>2010-03-28T13:46:18Z</time>
      </trkpt>
      <trkpt lat="45.62308" lon="5.71689">
        <ele>785</ele>
        <time>2010-03-28T13:46:21Z</time>
      </trkpt>
      <trkpt lat="45.6231" lon="5.71675">
        <ele>786</ele>
        <time>2010-03-28T13:46:27Z</time>
      </trkpt>
      <trkpt lat="45.62311" lon="5.71672">
        <ele>786</ele>
        <time>2010-03-28T13:46:29Z</time>
      </trkpt>
      <trkpt lat="45.62316" lon="5.7165">
        <ele>785</ele>
        <time>2010-03-28T13:46:38Z</time>
      </trkpt>
      <trkpt lat="45.6232" lon="5.71642">
        <ele>786</ele>
        <time>2010-03-28T13:46:43Z</time>
      </trkpt>
      <trkpt lat="45.62323" lon="5.71628">
        <ele>786</ele>
        <time>2010-03-28T13:46:53Z</time>
      </trkpt>
      <trkpt lat="45.62324" lon="5.71619">
        <ele>786</ele>
        <time>2010-03-28T13:46:58Z</time>
      </trkpt>
      <trkpt lat="45.62327" lon="5.71605">
        <ele>786</ele>
        <time>2010-03-28T13:47:04Z</time>
      </trkpt>
      <trkpt lat="45.62332" lon="5.71592">
        <ele>786</ele>
        <time>2010-03-28T13:47:10Z</time>
      </trkpt>
      <trkpt lat="45.62339" lon="5.71565">
        <ele>789</ele>
        <time>2010-03-28T13:47:23Z</time>
      </trkpt>
      <trkpt lat="45.62346" lon="5.71545">
        <ele>792</ele>
        <time>2010-03-28T13:47:34Z</time>
      </trkpt>
      <trkpt lat="45.62355" lon="5.71529">
        <ele>794</ele>
        <time>2010-03-28T13:47:44Z</time>
      </trkpt>
      <trkpt lat="45.62365" lon="5.71511">
        <ele>797</ele>
        <time>2010-03-28T13:47:55Z</time>
      </trkpt>
      <trkpt lat="45.62369" lon="5.71503">
        <ele>798</ele>
        <time>2010-03-28T13:48:01Z</time>
      </trkpt>
      <trkpt lat="45.62383" lon="5.71493">
        <ele>799</ele>
        <time>2010-03-28T13:48:12Z</time>
      </trkpt>
      <trkpt lat="45.62387" lon="5.7149">
        <ele>800</ele>
        <time>2010-03-28T13:48:15Z</time>
      </trkpt>
      <trkpt lat="45.62396" lon="5.7148">
        <ele>800</ele>
        <time>2010-03-28T13:48:19Z</time>
      </trkpt>
      <trkpt lat="45.62406" lon="5.71467">
        <ele>799</ele>
        <time>2010-03-28T13:48:24Z</time>
      </trkpt>
      <trkpt lat="45.62421" lon="5.71439">
        <ele>798</ele>
        <time>2010-03-28T13:48:35Z</time>
      </trkpt>
      <trkpt lat="45.62433" lon="5.71427">
        <ele>798</ele>
        <time>2010-03-28T13:48:43Z</time>
      </trkpt>
      <trkpt lat="45.6244" lon="5.71429">
        <ele>797</ele>
        <time>2010-03-28T13:48:47Z</time>
      </trkpt>
      <trkpt lat="45.62443" lon="5.71431">
        <ele>797</ele>
        <time>2010-03-28T13:48:49Z</time>
      </trkpt>
      <trkpt lat="45.62462" lon="5.71427">
        <ele>792</ele>
        <time>2010-03-28T13:48:57Z</time>
      </trkpt>
      <trkpt lat="45.62491" lon="5.71411">
        <ele>795</ele>
        <time>2010-03-28T13:49:09Z</time>
      </trkpt>
      <trkpt lat="45.62516" lon="5.71402">
        <ele>799</ele>
        <time>2010-03-28T13:49:20Z</time>
      </trkpt>
      <trkpt lat="45.62541" lon="5.71402">
        <ele>798</ele>
        <time>2010-03-28T13:49:30Z</time>
      </trkpt>
      <trkpt lat="45.62554" lon="5.71399">
        <ele>796</ele>
        <time>2010-03-28T13:49:36Z</time>
      </trkpt>
      <trkpt lat="45.62571" lon="5.71412">
        <ele>793</ele>
        <time>2010-03-28T13:49:44Z</time>
      </trkpt>
      <trkpt lat="45.62585" lon="5.7143">
        <ele>790</ele>
        <time>2010-03-28T13:49:52Z</time>
      </trkpt>
      <trkpt lat="45.62593" lon="5.7144">
        <ele>791</ele>
        <time>2010-03-28T13:49:57Z</time>
      </trkpt>
      <trkpt lat="45.62602" lon="5.71452">
        <ele>792</ele>
        <time>2010-03-28T13:50:04Z</time>
      </trkpt>
      <trkpt lat="45.62621" lon="5.71465">
        <ele>796</ele>
        <time>2010-03-28T13:50:15Z</time>
      </trkpt>
      <trkpt lat="45.62638" lon="5.71474">
        <ele>796</ele>
        <time>2010-03-28T13:50:23Z</time>
      </trkpt>
      <trkpt lat="45.62644" lon="5.71479">
        <ele>796</ele>
        <time>2010-03-28T13:50:26Z</time>
      </trkpt>
      <trkpt lat="45.62652" lon="5.71488">
        <ele>795</ele>
        <time>2010-03-28T13:50:31Z</time>
      </trkpt>
      <trkpt lat="45.62677" lon="5.71515">
        <ele>798</ele>
        <time>2010-03-28T13:50:41Z</time>
      </trkpt>
      <trkpt lat="45.62703" lon="5.71508">
        <ele>802</ele>
        <time>2010-03-28T13:50:48Z</time>
      </trkpt>
      <trkpt lat="45.62719" lon="5.71509">
        <ele>808</ele>
        <time>2010-03-28T13:50:57Z</time>
      </trkpt>
      <trkpt lat="45.62724" lon="5.7151">
        <ele>809</ele>
        <time>2010-03-28T13:50:59Z</time>
      </trkpt>
      <trkpt lat="45.6274" lon="5.71503">
        <ele>808</ele>
        <time>2010-03-28T13:51:06Z</time>
      </trkpt>
      <trkpt lat="45.62745" lon="5.71503">
        <ele>807</ele>
        <time>2010-03-28T13:51:19Z</time>
      </trkpt>
      <trkpt lat="45.62747" lon="5.71501">
        <ele>808</ele>
        <time>2010-03-28T13:51:27Z</time>
      </trkpt>
      <trkpt lat="45.62764" lon="5.71495">
        <ele>808</ele>
        <time>2010-03-28T13:51:35Z</time>
      </trkpt>
      <trkpt lat="45.62771" lon="5.71494">
        <ele>807</ele>
        <time>2010-03-28T13:51:37Z</time>
      </trkpt>
      <trkpt lat="45.62791" lon="5.71468">
        <ele>804</ele>
        <time>2010-03-28T13:51:48Z</time>
      </trkpt>
      <trkpt lat="45.62808" lon="5.71437">
        <ele>800</ele>
        <time>2010-03-28T13:52:01Z</time>
      </trkpt>
      <trkpt lat="45.62812" lon="5.71433">
        <ele>799</ele>
        <time>2010-03-28T13:52:03Z</time>
      </trkpt>
      <trkpt lat="45.62833" lon="5.71435">
        <ele>797</ele>
        <time>2010-03-28T13:52:09Z</time>
      </trkpt>
      <trkpt lat="45.6285" lon="5.71444">
        <ele>794</ele>
        <time>2010-03-28T13:52:13Z</time>
      </trkpt>
      <trkpt lat="45.62879" lon="5.71454">
        <ele>789</ele>
        <time>2010-03-28T13:52:21Z</time>
      </trkpt>
      <trkpt lat="45.62904" lon="5.71444">
        <ele>785</ele>
        <time>2010-03-28T13:52:28Z</time>
      </trkpt>
      <trkpt lat="45.62909" lon="5.71456">
        <ele>784</ele>
        <time>2010-03-28T13:52:31Z</time>
      </trkpt>
      <trkpt lat="45.6292" lon="5.71512">
        <ele>780</ele>
        <time>2010-03-28T13:52:39Z</time>
      </trkpt>
      <trkpt lat="45.62921" lon="5.71528">
        <ele>780</ele>
        <time>2010-03-28T13:52:41Z</time>
      </trkpt>
      <trkpt lat="45.62927" lon="5.71552">
        <ele>779</ele>
        <time>2010-03-28T13:52:45Z</time>
      </trkpt>
      <trkpt lat="45.62935" lon="5.71566">
        <ele>777</ele>
        <time>2010-03-28T13:52:49Z</time>
      </trkpt>
      <trkpt lat="45.62976" lon="5.71573">
        <ele>773</ele>
        <time>2010-03-28T13:52:59Z</time>
      </trkpt>
      <trkpt lat="45.6298" lon="5.71578">
        <ele>772</ele>
        <time>2010-03-28T13:53:00Z</time>
      </trkpt>
      <trkpt lat="45.63012" lon="5.7162">
        <ele>766</ele>
        <time>2010-03-28T13:53:08Z</time>
      </trkpt>
      <trkpt lat="45.63024" lon="5.71631">
        <ele>764</ele>
        <time>2010-03-28T13:53:12Z</time>
      </trkpt>
      <trkpt lat="45.63027" lon="5.71633">
        <ele>765</ele>
        <time>2010-03-28T13:53:14Z</time>
      </trkpt>
      <trkpt lat="45.63034" lon="5.71632">
        <ele>769</ele>
        <time>2010-03-28T13:53:16Z</time>
      </trkpt>
      <trkpt lat="45.63043" lon="5.71615">
        <ele>774</ele>
        <time>2010-03-28T13:53:27Z</time>
      </trkpt>
      <trkpt lat="45.63048" lon="5.716">
        <ele>775</ele>
        <time>2010-03-28T13:53:35Z</time>
      </trkpt>
      <trkpt lat="45.6305" lon="5.7159">
        <ele>773</ele>
        <time>2010-03-28T13:53:41Z</time>
      </trkpt>
      <trkpt lat="45.63047" lon="5.71571">
        <ele>772</ele>
        <time>2010-03-28T13:53:51Z</time>
      </trkpt>
      <trkpt lat="45.63041" lon="5.71549">
        <ele>774</ele>
        <time>2010-03-28T13:54:04Z</time>
      </trkpt>
      <trkpt lat="45.6304" lon="5.71533">
        <ele>778</ele>
        <time>2010-03-28T13:54:14Z</time>
      </trkpt>
      <trkpt lat="45.6304" lon="5.71516">
        <ele>781</ele>
        <time>2010-03-28T13:54:24Z</time>
      </trkpt>
      <trkpt lat="45.6304" lon="5.71503">
        <ele>785</ele>
        <time>2010-03-28T13:54:30Z</time>
      </trkpt>
      <trkpt lat="45.63042" lon="5.71496">
        <ele>786</ele>
        <time>2010-03-28T13:54:43Z</time>
      </trkpt>
      <trkpt lat="45.63042" lon="5.71494">
        <ele>787</ele>
        <time>2010-03-28T13:54:51Z</time>
      </trkpt>
      <trkpt lat="45.63044" lon="5.71486">
        <ele>787</ele>
        <time>2010-03-28T13:54:55Z</time>
      </trkpt>
      <trkpt lat="45.6305" lon="5.71465">
        <ele>786</ele>
        <time>2010-03-28T13:55:07Z</time>
      </trkpt>
      <trkpt lat="45.63052" lon="5.71459">
        <ele>787</ele>
        <time>2010-03-28T13:55:23Z</time>
      </trkpt>
      <trkpt lat="45.63067" lon="5.71435">
        <ele>789</ele>
        <time>2010-03-28T13:55:34Z</time>
      </trkpt>
      <trkpt lat="45.6307" lon="5.71431">
        <ele>790</ele>
        <time>2010-03-28T13:55:36Z</time>
      </trkpt>
      <trkpt lat="45.631" lon="5.71422">
        <ele>787</ele>
        <time>2010-03-28T13:55:48Z</time>
      </trkpt>
      <trkpt lat="45.63103" lon="5.71422">
        <ele>786</ele>
        <time>2010-03-28T13:55:49Z</time>
      </trkpt>
      <trkpt lat="45.63116" lon="5.71401">
        <ele>785</ele>
        <time>2010-03-28T13:55:59Z</time>
      </trkpt>
      <trkpt lat="45.6312" lon="5.71371">
        <ele>779</ele>
        <time>2010-03-28T13:56:07Z</time>
      </trkpt>
      <trkpt lat="45.63118" lon="5.71359">
        <ele>776</ele>
        <time>2010-03-28T13:56:09Z</time>
      </trkpt>
      <trkpt lat="45.63125" lon="5.71333">
        <ele>771</ele>
        <time>2010-03-28T13:56:13Z</time>
      </trkpt>
      <trkpt lat="45.6313" lon="5.71298">
        <ele>763</ele>
        <time>2010-03-28T13:56:19Z</time>
      </trkpt>
      <trkpt lat="45.63132" lon="5.71283">
        <ele>761</ele>
        <time>2010-03-28T13:56:22Z</time>
      </trkpt>
      <trkpt lat="45.63139" lon="5.71267">
        <ele>761</ele>
        <time>2010-03-28T13:56:25Z</time>
      </trkpt>
      <trkpt lat="45.63138" lon="5.71238">
        <ele>763</ele>
        <time>2010-03-28T13:56:32Z</time>
      </trkpt>
      <trkpt lat="45.6314" lon="5.71214">
        <ele>765</ele>
        <time>2010-03-28T13:56:37Z</time>
      </trkpt>
      <trkpt lat="45.63154" lon="5.71195">
        <ele>764</ele>
        <time>2010-03-28T13:56:47Z</time>
      </trkpt>
      <trkpt lat="45.63162" lon="5.71177">
        <ele>764</ele>
        <time>2010-03-28T13:57:07Z</time>
      </trkpt>
      <trkpt lat="45.63165" lon="5.71172">
        <ele>766</ele>
        <time>2010-03-28T13:57:10Z</time>
      </trkpt>
      <trkpt lat="45.63182" lon="5.71154">
        <ele>769</ele>
        <time>2010-03-28T13:57:22Z</time>
      </trkpt>
      <trkpt lat="45.63199" lon="5.71138">
        <ele>771</ele>
        <time>2010-03-28T13:57:32Z</time>
      </trkpt>
      <trkpt lat="45.63221" lon="5.71116">
        <ele>783</ele>
        <time>2010-03-28T13:57:44Z</time>
      </trkpt>
      <trkpt lat="45.63245" lon="5.71102">
        <ele>787</ele>
        <time>2010-03-28T13:57:55Z</time>
      </trkpt>
      <trkpt lat="45.6325" lon="5.71101">
        <ele>787</ele>
        <time>2010-03-28T13:57:57Z</time>
      </trkpt>
      <trkpt lat="45.63255" lon="5.71099">
        <ele>787</ele>
        <time>2010-03-28T13:57:59Z</time>
      </trkpt>
      <trkpt lat="45.63277" lon="5.71085">
        <ele>788</ele>
        <time>2010-03-28T13:58:08Z</time>
      </trkpt>
      <trkpt lat="45.63288" lon="5.71072">
        <ele>786</ele>
        <time>2010-03-28T13:58:16Z</time>
      </trkpt>
      <trkpt lat="45.6331" lon="5.71055">
        <ele>789</ele>
        <time>2010-03-28T13:58:26Z</time>
      </trkpt>
      <trkpt lat="45.63326" lon="5.71049">
        <ele>797</ele>
        <time>2010-03-28T13:58:33Z</time>
      </trkpt>
      <trkpt lat="45.63326" lon="5.71034">
        <ele>800</ele>
        <time>2010-03-28T13:58:40Z</time>
      </trkpt>
      <trkpt lat="45.63336" lon="5.71012">
        <ele>806</ele>
        <time>2010-03-28T13:58:50Z</time>
      </trkpt>
      <trkpt lat="45.63354" lon="5.70994">
        <ele>807</ele>
        <time>2010-03-28T13:59:01Z</time>
      </trkpt>
      <trkpt lat="45.63373" lon="5.70965">
        <ele>808</ele>
        <time>2010-03-28T13:59:12Z</time>
      </trkpt>
      <trkpt lat="45.63379" lon="5.70945">
        <ele>806</ele>
        <time>2010-03-28T13:59:18Z</time>
      </trkpt>
      <trkpt lat="45.63399" lon="5.70945">
        <ele>809</ele>
        <time>2010-03-28T13:59:28Z</time>
      </trkpt>
      <trkpt lat="45.63424" lon="5.70944">
        <ele>816</ele>
        <time>2010-03-28T13:59:43Z</time>
      </trkpt>
      <trkpt lat="45.63444" lon="5.70949">
        <ele>820</ele>
        <time>2010-03-28T13:59:56Z</time>
      </trkpt>
      <trkpt lat="45.63466" lon="5.70955">
        <ele>826</ele>
        <time>2010-03-28T14:00:11Z</time>
      </trkpt>
      <trkpt lat="45.6349" lon="5.70937">
        <ele>827</ele>
        <time>2010-03-28T14:00:27Z</time>
      </trkpt>
      <trkpt lat="45.63514" lon="5.70929">
        <ele>829</ele>
        <time>2010-03-28T14:00:39Z</time>
      </trkpt>
      <trkpt lat="45.6354" lon="5.70928">
        <ele>828</ele>
        <time>2010-03-28T14:00:48Z</time>
      </trkpt>
      <trkpt lat="45.63543" lon="5.70928">
        <ele>828</ele>
        <time>2010-03-28T14:00:49Z</time>
      </trkpt>
      <trkpt lat="45.63565" lon="5.70927">
        <ele>828</ele>
        <time>2010-03-28T14:00:57Z</time>
      </trkpt>
      <trkpt lat="45.63578" lon="5.70927">
        <ele>830</ele>
        <time>2010-03-28T14:01:02Z</time>
      </trkpt>
      <trkpt lat="45.63602" lon="5.70925">
        <ele>831</ele>
        <time>2010-03-28T14:01:13Z</time>
      </trkpt>
      <trkpt lat="45.63625" lon="5.70921">
        <ele>833</ele>
        <time>2010-03-28T14:01:23Z</time>
      </trkpt>
      <trkpt lat="45.63638" lon="5.70923">
        <ele>835</ele>
        <time>2010-03-28T14:01:30Z</time>
      </trkpt>
      <trkpt lat="45.63691" lon="5.70936">
        <ele>843</ele>
        <time>2010-03-28T14:02:00Z</time>
      </trkpt>
      <trkpt lat="45.63697" lon="5.70939">
        <ele>845</ele>
        <time>2010-03-28T14:02:05Z</time>
      </trkpt>
      <trkpt lat="45.637" lon="5.7094">
        <ele>846</ele>
        <time>2010-03-28T14:02:07Z</time>
      </trkpt>
      <trkpt lat="45.63708" lon="5.70941">
        <ele>848</ele>
        <time>2010-03-28T14:02:12Z</time>
      </trkpt>
      <trkpt lat="45.63729" lon="5.70917">
        <ele>845</ele>
        <time>2010-03-28T14:02:26Z</time>
      </trkpt>
      <trkpt lat="45.63758" lon="5.70889">
        <ele>841</ele>
        <time>2010-03-28T14:02:40Z</time>
      </trkpt>
      <trkpt lat="45.63786" lon="5.7088">
        <ele>838</ele>
        <time>2010-03-28T14:02:50Z</time>
      </trkpt>
      <trkpt lat="45.63824" lon="5.70874">
        <ele>836</ele>
        <time>2010-03-28T14:03:00Z</time>
      </trkpt>
      <trkpt lat="45.63841" lon="5.70866">
        <ele>835</ele>
        <time>2010-03-28T14:03:09Z</time>
      </trkpt>
      <trkpt lat="45.63847" lon="5.70866">
        <ele>835</ele>
        <time>2010-03-28T14:03:22Z</time>
      </trkpt>
      <trkpt lat="45.63874" lon="5.7085">
        <ele>834</ele>
        <time>2010-03-28T14:03:34Z</time>
      </trkpt>
      <trkpt lat="45.63904" lon="5.70821">
        <ele>834</ele>
        <time>2010-03-28T14:03:48Z</time>
      </trkpt>
      <trkpt lat="45.63934" lon="5.70801">
        <ele>834</ele>
        <time>2010-03-28T14:04:01Z</time>
      </trkpt>
      <trkpt lat="45.63938" lon="5.708">
        <ele>834</ele>
        <time>2010-03-28T14:04:03Z</time>
      </trkpt>
      <trkpt lat="45.63968" lon="5.70773">
        <ele>831</ele>
        <time>2010-03-28T14:04:17Z</time>
      </trkpt>
      <trkpt lat="45.64005" lon="5.70763">
        <ele>832</ele>
        <time>2010-03-28T14:04:31Z</time>
      </trkpt>
      <trkpt lat="45.64014" lon="5.70761">
        <ele>831</ele>
        <time>2010-03-28T14:04:33Z</time>
      </trkpt>
      <trkpt lat="45.64041" lon="5.70755">
        <ele>828</ele>
        <time>2010-03-28T14:04:39Z</time>
      </trkpt>
      <trkpt lat="45.64069" lon="5.70734">
        <ele>825</ele>
        <time>2010-03-28T14:04:46Z</time>
      </trkpt>
      <trkpt lat="45.64087" lon="5.70715">
        <ele>824</ele>
        <time>2010-03-28T14:04:51Z</time>
      </trkpt>
      <trkpt lat="45.64124" lon="5.70691">
        <ele>818</ele>
        <time>2010-03-28T14:05:02Z</time>
      </trkpt>
      <trkpt lat="45.64137" lon="5.70675">
        <ele>815</ele>
        <time>2010-03-28T14:05:09Z</time>
      </trkpt>
      <trkpt lat="45.64163" lon="5.70652">
        <ele>811</ele>
        <time>2010-03-28T14:05:17Z</time>
      </trkpt>
      <trkpt lat="45.64191" lon="5.70617">
        <ele>808</ele>
        <time>2010-03-28T14:05:24Z</time>
      </trkpt>
      <trkpt lat="45.64229" lon="5.70583">
        <ele>804</ele>
        <time>2010-03-28T14:05:35Z</time>
      </trkpt>
      <trkpt lat="45.64231" lon="5.7058">
        <ele>804</ele>
        <time>2010-03-28T14:05:36Z</time>
      </trkpt>
      <trkpt lat="45.64239" lon="5.70548">
        <ele>794</ele>
        <time>2010-03-28T14:05:45Z</time>
      </trkpt>
      <trkpt lat="45.64238" lon="5.70544">
        <ele>793</ele>
        <time>2010-03-28T14:05:46Z</time>
      </trkpt>
      <trkpt lat="45.64239" lon="5.70531">
        <ele>790</ele>
        <time>2010-03-28T14:05:49Z</time>
      </trkpt>
      <trkpt lat="45.64239" lon="5.7049">
        <ele>783</ele>
        <time>2010-03-28T14:05:59Z</time>
      </trkpt>
      <trkpt lat="45.64236" lon="5.70462">
        <ele>788</ele>
        <time>2010-03-28T14:06:07Z</time>
      </trkpt>
      <trkpt lat="45.64234" lon="5.70444">
        <ele>792</ele>
        <time>2010-03-28T14:06:18Z</time>
      </trkpt>
      <trkpt lat="45.64234" lon="5.70444">
        <ele>792</ele>
        <time>2010-03-28T14:06:28Z</time>
      </trkpt>
      <trkpt lat="45.64232" lon="5.70419">
        <ele>791</ele>
        <time>2010-03-28T14:06:37Z</time>
      </trkpt>
      <trkpt lat="45.64232" lon="5.70415">
        <ele>789</ele>
        <time>2010-03-28T14:06:39Z</time>
      </trkpt>
      <trkpt lat="45.64231" lon="5.70405">
        <ele>786</ele>
        <time>2010-03-28T14:06:43Z</time>
      </trkpt>
      <trkpt lat="45.64219" lon="5.70395">
        <ele>783</ele>
        <time>2010-03-28T14:06:47Z</time>
      </trkpt>
      <trkpt lat="45.64208" lon="5.70392">
        <ele>781</ele>
        <time>2010-03-28T14:06:49Z</time>
      </trkpt>
      <trkpt lat="45.64196" lon="5.70376">
        <ele>775</ele>
        <time>2010-03-28T14:06:56Z</time>
      </trkpt>
      <trkpt lat="45.6419" lon="5.70354">
        <ele>770</ele>
        <time>2010-03-28T14:07:02Z</time>
      </trkpt>
      <trkpt lat="45.64182" lon="5.7034">
        <ele>766</ele>
        <time>2010-03-28T14:07:07Z</time>
      </trkpt>
      <trkpt lat="45.64162" lon="5.70324">
        <ele>761</ele>
        <time>2010-03-28T14:07:12Z</time>
      </trkpt>
      <trkpt lat="45.64143" lon="5.70299">
        <ele>757</ele>
        <time>2010-03-28T14:07:17Z</time>
      </trkpt>
      <trkpt lat="45.64134" lon="5.7026">
        <ele>752</ele>
        <time>2010-03-28T14:07:22Z</time>
      </trkpt>
      <trkpt lat="45.64136" lon="5.7023">
        <ele>751</ele>
        <time>2010-03-28T14:07:27Z</time>
      </trkpt>
      <trkpt lat="45.64131" lon="5.70205">
        <ele>749</ele>
        <time>2010-03-28T14:07:31Z</time>
      </trkpt>
      <trkpt lat="45.64125" lon="5.70191">
        <ele>748</ele>
        <time>2010-03-28T14:07:33Z</time>
      </trkpt>
      <trkpt lat="45.6409" lon="5.70156">
        <ele>740</ele>
        <time>2010-03-28T14:07:41Z</time>
      </trkpt>
      <trkpt lat="45.6408" lon="5.70139">
        <ele>738</ele>
        <time>2010-03-28T14:07:44Z</time>
      </trkpt>
      <trkpt lat="45.64055" lon="5.70108">
        <ele>734</ele>
        <time>2010-03-28T14:07:49Z</time>
      </trkpt>
      <trkpt lat="45.64024" lon="5.70081">
        <ele>729</ele>
        <time>2010-03-28T14:07:55Z</time>
      </trkpt>
      <trkpt lat="45.64005" lon="5.70067">
        <ele>727</ele>
        <time>2010-03-28T14:07:59Z</time>
      </trkpt>
      <trkpt lat="45.6398" lon="5.7005">
        <ele>724</ele>
        <time>2010-03-28T14:08:04Z</time>
      </trkpt>
      <trkpt lat="45.63915" lon="5.70009">
        <ele>715</ele>
        <time>2010-03-28T14:08:15Z</time>
      </trkpt>
      <trkpt lat="45.63897" lon="5.6999">
        <ele>712</ele>
        <time>2010-03-28T14:08:21Z</time>
      </trkpt>
      <trkpt lat="45.63874" lon="5.6997">
        <ele>709</ele>
        <time>2010-03-28T14:08:27Z</time>
      </trkpt>
      <trkpt lat="45.63839" lon="5.69927">
        <ele>703</ele>
        <time>2010-03-28T14:08:34Z</time>
      </trkpt>
      <trkpt lat="45.63826" lon="5.69871">
        <ele>697</ele>
        <time>2010-03-28T14:08:40Z</time>
      </trkpt>
      <trkpt lat="45.63821" lon="5.69804">
        <ele>693</ele>
        <time>2010-03-28T14:08:47Z</time>
      </trkpt>
      <trkpt lat="45.63787" lon="5.69753">
        <ele>692</ele>
        <time>2010-03-28T14:08:54Z</time>
      </trkpt>
      <trkpt lat="45.63769" lon="5.69749">
        <ele>697</ele>
        <time>2010-03-28T14:08:56Z</time>
      </trkpt>
      <trkpt lat="45.6367" lon="5.69759">
        <ele>720</ele>
        <time>2010-03-28T14:09:08Z</time>
      </trkpt>
      <trkpt lat="45.63645" lon="5.69764">
        <ele>724</ele>
        <time>2010-03-28T14:09:12Z</time>
      </trkpt>
      <trkpt lat="45.63623" lon="5.69768">
        <ele>726</ele>
        <time>2010-03-28T14:09:16Z</time>
      </trkpt>
      <trkpt lat="45.63562" lon="5.69756">
        <ele>732</ele>
        <time>2010-03-28T14:09:29Z</time>
      </trkpt>
      <trkpt lat="45.63502" lon="5.69746">
        <ele>733</ele>
        <time>2010-03-28T14:09:43Z</time>
      </trkpt>
      <trkpt lat="45.63496" lon="5.69744">
        <ele>732</ele>
        <time>2010-03-28T14:09:44Z</time>
      </trkpt>
      <trkpt lat="45.63393" lon="5.69671">
        <ele>725</ele>
        <time>2010-03-28T14:10:00Z</time>
      </trkpt>
      <trkpt lat="45.63363" lon="5.69654">
        <ele>724</ele>
        <time>2010-03-28T14:10:04Z</time>
      </trkpt>
      <trkpt lat="45.6332" lon="5.69617">
        <ele>722</ele>
        <time>2010-03-28T14:10:11Z</time>
      </trkpt>
      <trkpt lat="45.63318" lon="5.69576">
        <ele>721</ele>
        <time>2010-03-28T14:10:19Z</time>
      </trkpt>
      <trkpt lat="45.63318" lon="5.69513">
        <ele>719</ele>
        <time>2010-03-28T14:10:32Z</time>
      </trkpt>
      <trkpt lat="45.63362" lon="5.69479">
        <ele>720</ele>
        <time>2010-03-28T14:10:47Z</time>
      </trkpt>
      <trkpt lat="45.63384" lon="5.69463">
        <ele>721</ele>
        <time>2010-03-28T14:10:55Z</time>
      </trkpt>
      <trkpt lat="45.63382" lon="5.69424">
        <ele>723</ele>
        <time>2010-03-28T14:11:07Z</time>
      </trkpt>
      <trkpt lat="45.63371" lon="5.69399">
        <ele>724</ele>
        <time>2010-03-28T14:11:18Z</time>
      </trkpt>
      <trkpt lat="45.63363" lon="5.69359">
        <ele>726</ele>
        <time>2010-03-28T14:11:32Z</time>
      </trkpt>
      <trkpt lat="45.6336" lon="5.69335">
        <ele>727</ele>
        <time>2010-03-28T14:11:39Z</time>
      </trkpt>
      <trkpt lat="45.63341" lon="5.69309">
        <ele>728</ele>
        <time>2010-03-28T14:11:49Z</time>
      </trkpt>
      <trkpt lat="45.63332" lon="5.693">
        <ele>728</ele>
        <time>2010-03-28T14:11:53Z</time>
      </trkpt>
      <trkpt lat="45.63302" lon="5.69311">
        <ele>731</ele>
        <time>2010-03-28T14:12:05Z</time>
      </trkpt>
      <trkpt lat="45.63289" lon="5.69314">
        <ele>732</ele>
        <time>2010-03-28T14:12:09Z</time>
      </trkpt>
      <trkpt lat="45.63251" lon="5.69322">
        <ele>731</ele>
        <time>2010-03-28T14:12:18Z</time>
      </trkpt>
      <trkpt lat="45.63247" lon="5.69324">
        <ele>731</ele>
        <time>2010-03-28T14:12:19Z</time>
      </trkpt>
      <trkpt lat="45.63239" lon="5.6933">
        <ele>730</ele>
        <time>2010-03-28T14:12:21Z</time>
      </trkpt>
      <trkpt lat="45.63233" lon="5.69347">
        <ele>730</ele>
        <time>2010-03-28T14:12:25Z</time>
      </trkpt>
      <trkpt lat="45.6321" lon="5.69377">
        <ele>730</ele>
        <time>2010-03-28T14:12:35Z</time>
      </trkpt>
      <trkpt lat="45.63177" lon="5.69381">
        <ele>730</ele>
        <time>2010-03-28T14:12:47Z</time>
      </trkpt>
      <trkpt lat="45.6315" lon="5.69374">
        <ele>732</ele>
        <time>2010-03-28T14:12:58Z</time>
      </trkpt>
      <trkpt lat="45.63135" lon="5.69374">
        <ele>732</ele>
        <time>2010-03-28T14:13:04Z</time>
      </trkpt>
      <trkpt lat="45.63126" lon="5.69373">
        <ele>732</ele>
        <time>2010-03-28T14:13:06Z</time>
      </trkpt>
      <trkpt lat="45.63107" lon="5.69364">
        <ele>729</ele>
        <time>2010-03-28T14:13:10Z</time>
      </trkpt>
      <trkpt lat="45.6307" lon="5.6934">
        <ele>722</ele>
        <time>2010-03-28T14:13:18Z</time>
      </trkpt>
      <trkpt lat="45.63053" lon="5.69344">
        <ele>719</ele>
        <time>2010-03-28T14:13:24Z</time>
      </trkpt>
      <trkpt lat="45.63051" lon="5.69341">
        <ele>718</ele>
        <time>2010-03-28T14:13:25Z</time>
      </trkpt>
      <trkpt lat="45.63016" lon="5.69268">
        <ele>714</ele>
        <time>2010-03-28T14:13:38Z</time>
      </trkpt>
      <trkpt lat="45.63" lon="5.69243">
        <ele>713</ele>
        <time>2010-03-28T14:13:42Z</time>
      </trkpt>
      <trkpt lat="45.62979" lon="5.69221">
        <ele>713</ele>
        <time>2010-03-28T14:13:52Z</time>
      </trkpt>
      <trkpt lat="45.62968" lon="5.69216">
        <ele>713</ele>
        <time>2010-03-28T14:14:05Z</time>
      </trkpt>
      <trkpt lat="45.62963" lon="5.69213">
        <ele>713</ele>
        <time>2010-03-28T14:14:07Z</time>
      </trkpt>
      <trkpt lat="45.6295" lon="5.69191">
        <ele>713</ele>
        <time>2010-03-28T14:14:11Z</time>
      </trkpt>
      <trkpt lat="45.62922" lon="5.69138">
        <ele>711</ele>
        <time>2010-03-28T14:14:19Z</time>
      </trkpt>
      <trkpt lat="45.6291" lon="5.69106">
        <ele>709</ele>
        <time>2010-03-28T14:14:24Z</time>
      </trkpt>
      <trkpt lat="45.62905" lon="5.69092">
        <ele>708</ele>
        <time>2010-03-28T14:14:26Z</time>
      </trkpt>
      <trkpt lat="45.62901" lon="5.69078">
        <ele>707</ele>
        <time>2010-03-28T14:14:28Z</time>
      </trkpt>
      <trkpt lat="45.62893" lon="5.69054">
        <ele>704</ele>
        <time>2010-03-28T14:14:32Z</time>
      </trkpt>
      <trkpt lat="45.62872" lon="5.69013">
        <ele>702</ele>
        <time>2010-03-28T14:14:41Z</time>
      </trkpt>
      <trkpt lat="45.62866" lon="5.69004">
        <ele>702</ele>
        <time>2010-03-28T14:14:43Z</time>
      </trkpt>
      <trkpt lat="45.62845" lon="5.68977">
        <ele>701</ele>
        <time>2010-03-28T14:14:49Z</time>
      </trkpt>
      <trkpt lat="45.62832" lon="5.68959">
        <ele>701</ele>
        <time>2010-03-28T14:14:53Z</time>
      </trkpt>
      <trkpt lat="45.62823" lon="5.68937">
        <ele>700</ele>
        <time>2010-03-28T14:14:57Z</time>
      </trkpt>
      <trkpt lat="45.62803" lon="5.6892">
        <ele>701</ele>
        <time>2010-03-28T14:15:03Z</time>
      </trkpt>
      <trkpt lat="45.62753" lon="5.68893">
        <ele>705</ele>
        <time>2010-03-28T14:15:16Z</time>
      </trkpt>
      <trkpt lat="45.62706" lon="5.68876">
        <ele>706</ele>
        <time>2010-03-28T14:15:27Z</time>
      </trkpt>
      <trkpt lat="45.62642" lon="5.68872">
        <ele>706</ele>
        <time>2010-03-28T14:15:37Z</time>
      </trkpt>
      <trkpt lat="45.62563" lon="5.68861">
        <ele>702</ele>
        <time>2010-03-28T14:15:49Z</time>
      </trkpt>
      <trkpt lat="45.62538" lon="5.68863">
        <ele>701</ele>
        <time>2010-03-28T14:15:53Z</time>
      </trkpt>
      <trkpt lat="45.62515" lon="5.68876">
        <ele>698</ele>
        <time>2010-03-28T14:15:57Z</time>
      </trkpt>
      <trkpt lat="45.62496" lon="5.68891">
        <ele>694</ele>
        <time>2010-03-28T14:16:01Z</time>
      </trkpt>
      <trkpt lat="45.62436" lon="5.68917">
        <ele>686</ele>
        <time>2010-03-28T14:16:10Z</time>
      </trkpt>
      <trkpt lat="45.62424" lon="5.68927">
        <ele>683</ele>
        <time>2010-03-28T14:16:13Z</time>
      </trkpt>
      <trkpt lat="45.62399" lon="5.68912">
        <ele>676</ele>
        <time>2010-03-28T14:16:22Z</time>
      </trkpt>
      <trkpt lat="45.62396" lon="5.68882">
        <ele>671</ele>
        <time>2010-03-28T14:16:28Z</time>
      </trkpt>
      <trkpt lat="45.62396" lon="5.68844">
        <ele>664</ele>
        <time>2010-03-28T14:16:34Z</time>
      </trkpt>
      <trkpt lat="45.62393" lon="5.68811">
        <ele>659</ele>
        <time>2010-03-28T14:16:39Z</time>
      </trkpt>
      <trkpt lat="45.62396" lon="5.68785">
        <ele>656</ele>
        <time>2010-03-28T14:16:43Z</time>
      </trkpt>
      <trkpt lat="45.62389" lon="5.68661">
        <ele>643</ele>
        <time>2010-03-28T14:16:54Z</time>
      </trkpt>
      <trkpt lat="45.62396" lon="5.68632">
        <ele>639</ele>
        <time>2010-03-28T14:16:57Z</time>
      </trkpt>
      <trkpt lat="45.62407" lon="5.68593">
        <ele>635</ele>
        <time>2010-03-28T14:17:01Z</time>
      </trkpt>
      <trkpt lat="45.62434" lon="5.68529">
        <ele>627</ele>
        <time>2010-03-28T14:17:09Z</time>
      </trkpt>
      <trkpt lat="45.62436" lon="5.68512">
        <ele>625</ele>
        <time>2010-03-28T14:17:11Z</time>
      </trkpt>
      <trkpt lat="45.62429" lon="5.6846">
        <ele>623</ele>
        <time>2010-03-28T14:17:20Z</time>
      </trkpt>
      <trkpt lat="45.62423" lon="5.68455">
        <ele>623</ele>
        <time>2010-03-28T14:17:22Z</time>
      </trkpt>
      <trkpt lat="45.62414" lon="5.68447">
        <ele>622</ele>
        <time>2010-03-28T14:17:25Z</time>
      </trkpt>
      <trkpt lat="45.62388" lon="5.68437">
        <ele>622</ele>
        <time>2010-03-28T14:17:33Z</time>
      </trkpt>
      <trkpt lat="45.62361" lon="5.68437">
        <ele>623</ele>
        <time>2010-03-28T14:17:45Z</time>
      </trkpt>
      <trkpt lat="45.62341" lon="5.68447">
        <ele>623</ele>
        <time>2010-03-28T14:17:57Z</time>
      </trkpt>
      <trkpt lat="45.62326" lon="5.68459">
        <ele>623</ele>
        <time>2010-03-28T14:18:06Z</time>
      </trkpt>
      <trkpt lat="45.62318" lon="5.68464">
        <ele>621</ele>
        <time>2010-03-28T14:18:11Z</time>
      </trkpt>
      <trkpt lat="45.62302" lon="5.68474">
        <ele>617</ele>
        <time>2010-03-28T14:18:23Z</time>
      </trkpt>
      <trkpt lat="45.62289" lon="5.68481">
        <ele>615</ele>
        <time>2010-03-28T14:18:32Z</time>
      </trkpt>
      <trkpt lat="45.62268" lon="5.68486">
        <ele>617</ele>
        <time>2010-03-28T14:18:46Z</time>
      </trkpt>
      <trkpt lat="45.62256" lon="5.68485">
        <ele>622</ele>
        <time>2010-03-28T14:18:53Z</time>
      </trkpt>
      <trkpt lat="45.62245" lon="5.68482">
        <ele>628</ele>
        <time>2010-03-28T14:19:00Z</time>
      </trkpt>
      <trkpt lat="45.62224" lon="5.68475">
        <ele>640</ele>
        <time>2010-03-28T14:19:12Z</time>
      </trkpt>
      <trkpt lat="45.62216" lon="5.68476">
        <ele>641</ele>
        <time>2010-03-28T14:19:16Z</time>
      </trkpt>
      <trkpt lat="45.62191" lon="5.68484">
        <ele>643</ele>
        <time>2010-03-28T14:19:28Z</time>
      </trkpt>
      <trkpt lat="45.62175" lon="5.68492">
        <ele>642</ele>
        <time>2010-03-28T14:19:36Z</time>
      </trkpt>
      <trkpt lat="45.62153" lon="5.68498">
        <ele>642</ele>
        <time>2010-03-28T14:19:46Z</time>
      </trkpt>
      <trkpt lat="45.62144" lon="5.68503">
        <ele>642</ele>
        <time>2010-03-28T14:19:50Z</time>
      </trkpt>
      <trkpt lat="45.62119" lon="5.68513">
        <ele>639</ele>
        <time>2010-03-28T14:20:03Z</time>
      </trkpt>
      <trkpt lat="45.62101" lon="5.68528">
        <ele>637</ele>
        <time>2010-03-28T14:20:15Z</time>
      </trkpt>
      <trkpt lat="45.62087" lon="5.68546">
        <ele>635</ele>
        <time>2010-03-28T14:20:26Z</time>
      </trkpt>
      <trkpt lat="45.62074" lon="5.6857">
        <ele>635</ele>
        <time>2010-03-28T14:20:38Z</time>
      </trkpt>
      <trkpt lat="45.62063" lon="5.6859">
        <ele>635</ele>
        <time>2010-03-28T14:20:49Z</time>
      </trkpt>
      <trkpt lat="45.62048" lon="5.68615">
        <ele>636</ele>
        <time>2010-03-28T14:21:03Z</time>
      </trkpt>
      <trkpt lat="45.62036" lon="5.68634">
        <ele>633</ele>
        <time>2010-03-28T14:21:14Z</time>
      </trkpt>
      <trkpt lat="45.6202" lon="5.68663">
        <ele>629</ele>
        <time>2010-03-28T14:21:32Z</time>
      </trkpt>
      <trkpt lat="45.62018" lon="5.68668">
        <ele>629</ele>
        <time>2010-03-28T14:21:35Z</time>
      </trkpt>
      <trkpt lat="45.62014" lon="5.68675">
        <ele>630</ele>
        <time>2010-03-28T14:21:39Z</time>
      </trkpt>
      <trkpt lat="45.62009" lon="5.68682">
        <ele>630</ele>
        <time>2010-03-28T14:21:44Z</time>
      </trkpt>
      <trkpt lat="45.62002" lon="5.68693">
        <ele>631</ele>
        <time>2010-03-28T14:21:51Z</time>
      </trkpt>
      <trkpt lat="45.6199" lon="5.68711">
        <ele>632</ele>
        <time>2010-03-28T14:22:03Z</time>
      </trkpt>
      <trkpt lat="45.61981" lon="5.68723">
        <ele>628</ele>
        <time>2010-03-28T14:22:14Z</time>
      </trkpt>
      <trkpt lat="45.6198" lon="5.68725">
        <ele>628</ele>
        <time>2010-03-28T14:22:16Z</time>
      </trkpt>
      <trkpt lat="45.61975" lon="5.68728">
        <ele>627</ele>
        <time>2010-03-28T14:22:20Z</time>
      </trkpt>
      <trkpt lat="45.61954" lon="5.6873">
        <ele>629</ele>
        <time>2010-03-28T14:22:34Z</time>
      </trkpt>
      <trkpt lat="45.61951" lon="5.68731">
        <ele>630</ele>
        <time>2010-03-28T14:22:37Z</time>
      </trkpt>
      <trkpt lat="45.61946" lon="5.6873">
        <ele>634</ele>
        <time>2010-03-28T14:22:41Z</time>
      </trkpt>
      <trkpt lat="45.61943" lon="5.6873">
        <ele>637</ele>
        <time>2010-03-28T14:22:43Z</time>
      </trkpt>
      <trkpt lat="45.61917" lon="5.68717">
        <ele>659</ele>
        <time>2010-03-28T14:22:57Z</time>
      </trkpt>
      <trkpt lat="45.61889" lon="5.68721">
        <ele>671</ele>
        <time>2010-03-28T14:23:16Z</time>
      </trkpt>
      <trkpt lat="45.61881" lon="5.68724">
        <ele>675</ele>
        <time>2010-03-28T14:23:22Z</time>
      </trkpt>
      <trkpt lat="45.61876" lon="5.68724">
        <ele>677</ele>
        <time>2010-03-28T14:23:25Z</time>
      </trkpt>
      <trkpt lat="45.61855" lon="5.68729">
        <ele>681</ele>
        <time>2010-03-28T14:23:41Z</time>
      </trkpt>
      <trkpt lat="45.61834" lon="5.68727">
        <ele>688</ele>
        <time>2010-03-28T14:23:56Z</time>
      </trkpt>
      <trkpt lat="45.61825" lon="5.68725">
        <ele>689</ele>
        <time>2010-03-28T14:24:01Z</time>
      </trkpt>
      <trkpt lat="45.61814" lon="5.68728">
        <ele>689</ele>
        <time>2010-03-28T14:24:04Z</time>
      </trkpt>
      <trkpt lat="45.6179" lon="5.68735">
        <ele>693</ele>
        <time>2010-03-28T14:24:12Z</time>
      </trkpt>
      <trkpt lat="45.61791" lon="5.68735">
        <ele>694</ele>
        <time>2010-03-28T14:24:47Z</time>
      </trkpt>
      <trkpt lat="45.61779" lon="5.68753">
        <ele>694</ele>
        <time>2010-03-28T14:24:53Z</time>
      </trkpt>
      <trkpt lat="45.61762" lon="5.68788">
        <ele>692</ele>
        <time>2010-03-28T14:24:58Z</time>
      </trkpt>
      <trkpt lat="45.61719" lon="5.68826">
        <ele>694</ele>
        <time>2010-03-28T14:25:07Z</time>
      </trkpt>
      <trkpt lat="45.61689" lon="5.68849">
        <ele>696</ele>
        <time>2010-03-28T14:25:19Z</time>
      </trkpt>
      <trkpt lat="45.61656" lon="5.68881">
        <ele>693</ele>
        <time>2010-03-28T14:25:25Z</time>
      </trkpt>
      <trkpt lat="45.61646" lon="5.68891">
        <ele>693</ele>
        <time>2010-03-28T14:25:27Z</time>
      </trkpt>
      <trkpt lat="45.61636" lon="5.689">
        <ele>693</ele>
        <time>2010-03-28T14:25:29Z</time>
      </trkpt>
      <trkpt lat="45.61633" lon="5.68926">
        <ele>691</ele>
        <time>2010-03-28T14:25:33Z</time>
      </trkpt>
      <trkpt lat="45.61643" lon="5.68945">
        <ele>689</ele>
        <time>2010-03-28T14:25:36Z</time>
      </trkpt>
      <trkpt lat="45.61643" lon="5.69012">
        <ele>683</ele>
        <time>2010-03-28T14:25:43Z</time>
      </trkpt>
      <trkpt lat="45.61619" lon="5.69066">
        <ele>678</ele>
        <time>2010-03-28T14:25:48Z</time>
      </trkpt>
      <trkpt lat="45.61591" lon="5.69094">
        <ele>677</ele>
        <time>2010-03-28T14:25:52Z</time>
      </trkpt>
      <trkpt lat="45.61569" lon="5.69104">
        <ele>677</ele>
        <time>2010-03-28T14:25:55Z</time>
      </trkpt>
      <trkpt lat="45.61548" lon="5.69149">
        <ele>675</ele>
        <time>2010-03-28T14:26:01Z</time>
      </trkpt>
      <trkpt lat="45.61558" lon="5.69165">
        <ele>674</ele>
        <time>2010-03-28T14:26:03Z</time>
      </trkpt>
      <trkpt lat="45.6163" lon="5.69254">
        <ele>664</ele>
        <time>2010-03-28T14:26:13Z</time>
      </trkpt>
      <trkpt lat="45.61694" lon="5.69391">
        <ele>662</ele>
        <time>2010-03-28T14:26:26Z</time>
      </trkpt>
      <trkpt lat="45.61714" lon="5.69452">
        <ele>660</ele>
        <time>2010-03-28T14:26:33Z</time>
      </trkpt>
      <trkpt lat="45.61727" lon="5.69499">
        <ele>658</ele>
        <time>2010-03-28T14:26:38Z</time>
      </trkpt>
      <trkpt lat="45.6173" lon="5.69527">
        <ele>657</ele>
        <time>2010-03-28T14:26:41Z</time>
      </trkpt>
      <trkpt lat="45.61713" lon="5.69554">
        <ele>654</ele>
        <time>2010-03-28T14:26:46Z</time>
      </trkpt>
      <trkpt lat="45.61669" lon="5.69562">
        <ele>649</ele>
        <time>2010-03-28T14:26:51Z</time>
      </trkpt>
      <trkpt lat="45.6163" lon="5.69588">
        <ele>645</ele>
        <time>2010-03-28T14:26:56Z</time>
      </trkpt>
      <trkpt lat="45.61541" lon="5.69701">
        <ele>637</ele>
        <time>2010-03-28T14:27:10Z</time>
      </trkpt>
      <trkpt lat="45.61534" lon="5.69721">
        <ele>636</ele>
        <time>2010-03-28T14:27:14Z</time>
      </trkpt>
      <trkpt lat="45.61531" lon="5.69745">
        <ele>633</ele>
        <time>2010-03-28T14:27:19Z</time>
      </trkpt>
      <trkpt lat="45.61533" lon="5.69754">
        <ele>631</ele>
        <time>2010-03-28T14:27:23Z</time>
      </trkpt>
      <trkpt lat="45.61529" lon="5.6977">
        <ele>626</ele>
        <time>2010-03-28T14:27:29Z</time>
      </trkpt>
      <trkpt lat="45.6153" lon="5.69785">
        <ele>624</ele>
        <time>2010-03-28T14:27:35Z</time>
      </trkpt>
      <trkpt lat="45.61535" lon="5.69797">
        <ele>620</ele>
        <time>2010-03-28T14:27:39Z</time>
      </trkpt>
      <trkpt lat="45.61539" lon="5.69808">
        <ele>617</ele>
        <time>2010-03-28T14:27:42Z</time>
      </trkpt>
      <trkpt lat="45.61539" lon="5.69813">
        <ele>614</ele>
        <time>2010-03-28T14:27:57Z</time>
      </trkpt>
      <trkpt lat="45.6154" lon="5.69816">
        <ele>614</ele>
        <time>2010-03-28T14:30:08Z</time>
      </trkpt>
      <trkpt lat="45.61539" lon="5.69817">
        <ele>614</ele>
        <time>2010-03-28T14:31:08Z</time>
      </trkpt>
      <trkpt lat="45.61546" lon="5.69835">
        <ele>614</ele>
        <time>2010-03-28T14:32:01Z</time>
      </trkpt>
      <trkpt lat="45.6155" lon="5.69859">
        <ele>614</ele>
        <time>2010-03-28T14:32:08Z</time>
      </trkpt>
      <trkpt lat="45.61557" lon="5.69884">
        <ele>619</ele>
        <time>2010-03-28T14:32:23Z</time>
      </trkpt>
      <trkpt lat="45.6156" lon="5.69894">
        <ele>620</ele>
        <time>2010-03-28T14:32:29Z</time>
      </trkpt>
      <trkpt lat="45.61565" lon="5.69909">
        <ele>624</ele>
        <time>2010-03-28T14:32:39Z</time>
      </trkpt>
      <trkpt lat="45.61566" lon="5.69913">
        <ele>624</ele>
        <time>2010-03-28T14:32:52Z</time>
      </trkpt>
      <trkpt lat="45.61568" lon="5.69918">
        <ele>627</ele>
        <time>2010-03-28T14:33:02Z</time>
      </trkpt>
      <trkpt lat="45.61569" lon="5.69928">
        <ele>628</ele>
        <time>2010-03-28T14:33:14Z</time>
      </trkpt>
      <trkpt lat="45.61568" lon="5.69937">
        <ele>629</ele>
        <time>2010-03-28T14:33:21Z</time>
      </trkpt>
      <trkpt lat="45.61567" lon="5.69942">
        <ele>630</ele>
        <time>2010-03-28T14:33:25Z</time>
      </trkpt>
      <trkpt lat="45.61562" lon="5.69943">
        <ele>631</ele>
        <time>2010-03-28T14:33:32Z</time>
      </trkpt>
      <trkpt lat="45.61552" lon="5.69953">
        <ele>630</ele>
        <time>2010-03-28T14:33:38Z</time>
      </trkpt>
      <trkpt lat="45.61545" lon="5.70012">
        <ele>631</ele>
        <time>2010-03-28T14:33:53Z</time>
      </trkpt>
      <trkpt lat="45.61525" lon="5.70039">
        <ele>630</ele>
        <time>2010-03-28T14:34:00Z</time>
      </trkpt>
      <trkpt lat="45.61524" lon="5.70067">
        <ele>630</ele>
        <time>2010-03-28T14:34:06Z</time>
      </trkpt>
      <trkpt lat="45.6149" lon="5.70081">
        <ele>626</ele>
        <time>2010-03-28T14:34:14Z</time>
      </trkpt>
      <trkpt lat="45.61415" lon="5.70087">
        <ele>619</ele>
        <time>2010-03-28T14:34:23Z</time>
      </trkpt>
      <trkpt lat="45.61388" lon="5.70085">
        <ele>614</ele>
        <time>2010-03-28T14:34:26Z</time>
      </trkpt>
      <trkpt lat="45.61365" lon="5.70078">
        <ele>611</ele>
        <time>2010-03-28T14:34:29Z</time>
      </trkpt>
      <trkpt lat="45.6134" lon="5.70102">
        <ele>607</ele>
        <time>2010-03-28T14:34:35Z</time>
      </trkpt>
      <trkpt lat="45.61337" lon="5.70111">
        <ele>606</ele>
        <time>2010-03-28T14:34:36Z</time>
      </trkpt>
      <trkpt lat="45.61299" lon="5.70231">
        <ele>603</ele>
        <time>2010-03-28T14:34:51Z</time>
      </trkpt>
      <trkpt lat="45.61272" lon="5.70313">
        <ele>604</ele>
        <time>2010-03-28T14:35:04Z</time>
      </trkpt>
      <trkpt lat="45.61255" lon="5.70333">
        <ele>604</ele>
        <time>2010-03-28T14:35:09Z</time>
      </trkpt>
      <trkpt lat="45.61237" lon="5.70362">
        <ele>604</ele>
        <time>2010-03-28T14:35:18Z</time>
      </trkpt>
      <trkpt lat="45.61223" lon="5.70427">
        <ele>612</ele>
        <time>2010-03-28T14:35:43Z</time>
      </trkpt>
      <trkpt lat="45.61216" lon="5.70452">
        <ele>614</ele>
        <time>2010-03-28T14:35:54Z</time>
      </trkpt>
      <trkpt lat="45.61215" lon="5.70461">
        <ele>615</ele>
        <time>2010-03-28T14:35:59Z</time>
      </trkpt>
      <trkpt lat="45.61209" lon="5.70492">
        <ele>620</ele>
        <time>2010-03-28T14:36:14Z</time>
      </trkpt>
      <trkpt lat="45.61198" lon="5.7052">
        <ele>621</ele>
        <time>2010-03-28T14:36:29Z</time>
      </trkpt>
      <trkpt lat="45.61192" lon="5.70532">
        <ele>621</ele>
        <time>2010-03-28T14:36:36Z</time>
      </trkpt>
      <trkpt lat="45.61174" lon="5.70555">
        <ele>622</ele>
        <time>2010-03-28T14:36:48Z</time>
      </trkpt>
      <trkpt lat="45.61137" lon="5.70602">
        <ele>621</ele>
        <time>2010-03-28T14:37:07Z</time>
      </trkpt>
      <trkpt lat="45.61114" lon="5.70637">
        <ele>620</ele>
        <time>2010-03-28T14:37:19Z</time>
      </trkpt>
      <trkpt lat="45.6109" lon="5.70672">
        <ele>619</ele>
        <time>2010-03-28T14:37:33Z</time>
      </trkpt>
      <trkpt lat="45.61062" lon="5.70703">
        <ele>617</ele>
        <time>2010-03-28T14:37:46Z</time>
      </trkpt>
      <trkpt lat="45.61059" lon="5.70706">
        <ele>617</ele>
        <time>2010-03-28T14:37:47Z</time>
      </trkpt>
      <trkpt lat="45.61049" lon="5.70716">
        <ele>617</ele>
        <time>2010-03-28T14:37:50Z</time>
      </trkpt>
      <trkpt lat="45.61041" lon="5.70726">
        <ele>617</ele>
        <time>2010-03-28T14:37:53Z</time>
      </trkpt>
      <trkpt lat="45.61034" lon="5.70732">
        <ele>617</ele>
        <time>2010-03-28T14:37:55Z</time>
      </trkpt>
      <trkpt lat="45.61026" lon="5.70739">
        <ele>617</ele>
        <time>2010-03-28T14:37:57Z</time>
      </trkpt>
      <trkpt lat="45.61006" lon="5.70762">
        <ele>619</ele>
        <time>2010-03-28T14:38:04Z</time>
      </trkpt>
      <trkpt lat="45.60964" lon="5.70813">
        <ele>620</ele>
        <time>2010-03-28T14:38:18Z</time>
      </trkpt>
      <trkpt lat="45.60933" lon="5.70863">
        <ele>619</ele>
        <time>2010-03-28T14:38:32Z</time>
      </trkpt>
      <trkpt lat="45.60932" lon="5.70866">
        <ele>618</ele>
        <time>2010-03-28T14:38:33Z</time>
      </trkpt>
      <trkpt lat="45.60915" lon="5.7088">
        <ele>618</ele>
        <time>2010-03-28T14:38:37Z</time>
      </trkpt>
      <trkpt lat="45.60882" lon="5.70899">
        <ele>614</ele>
        <time>2010-03-28T14:38:42Z</time>
      </trkpt>
      <trkpt lat="45.60843" lon="5.70949">
        <ele>612</ele>
        <time>2010-03-28T14:38:53Z</time>
      </trkpt>
      <trkpt lat="45.60825" lon="5.70982">
        <ele>610</ele>
        <time>2010-03-28T14:39:01Z</time>
      </trkpt>
      <trkpt lat="45.6082" lon="5.70993">
        <ele>610</ele>
        <time>2010-03-28T14:39:05Z</time>
      </trkpt>
      <trkpt lat="45.60803" lon="5.71018">
        <ele>610</ele>
        <time>2010-03-28T14:39:17Z</time>
      </trkpt>
      <trkpt lat="45.60787" lon="5.71048">
        <ele>614</ele>
        <time>2010-03-28T14:39:29Z</time>
      </trkpt>
      <trkpt lat="45.60765" lon="5.71087">
        <ele>615</ele>
        <time>2010-03-28T14:39:43Z</time>
      </trkpt>
      <trkpt lat="45.60759" lon="5.71093">
        <ele>614</ele>
        <time>2010-03-28T14:39:45Z</time>
      </trkpt>
      <trkpt lat="45.60715" lon="5.71121">
        <ele>614</ele>
        <time>2010-03-28T14:39:58Z</time>
      </trkpt>
      <trkpt lat="45.60685" lon="5.71134">
        <ele>616</ele>
        <time>2010-03-28T14:40:09Z</time>
      </trkpt>
      <trkpt lat="45.60666" lon="5.71139">
        <ele>614</ele>
        <time>2010-03-28T14:40:14Z</time>
      </trkpt>
      <trkpt lat="45.60624" lon="5.71157">
        <ele>611</ele>
        <time>2010-03-28T14:40:20Z</time>
      </trkpt>
      <trkpt lat="45.60609" lon="5.71162">
        <ele>609</ele>
        <time>2010-03-28T14:40:22Z</time>
      </trkpt>
      <trkpt lat="45.60531" lon="5.71198">
        <ele>595</ele>
        <time>2010-03-28T14:40:33Z</time>
      </trkpt>
      <trkpt lat="45.6052" lon="5.71203">
        <ele>591</ele>
        <time>2010-03-28T14:40:35Z</time>
      </trkpt>
      <trkpt lat="45.60505" lon="5.7123">
        <ele>586</ele>
        <time>2010-03-28T14:40:41Z</time>
      </trkpt>
      <trkpt lat="45.60497" lon="5.71245">
        <ele>586</ele>
        <time>2010-03-28T14:40:45Z</time>
      </trkpt>
      <trkpt lat="45.60472" lon="5.71266">
        <ele>586</ele>
        <time>2010-03-28T14:40:51Z</time>
      </trkpt>
      <trkpt lat="45.6046" lon="5.71299">
        <ele>586</ele>
        <time>2010-03-28T14:40:57Z</time>
      </trkpt>
      <trkpt lat="45.60456" lon="5.7132">
        <ele>585</ele>
        <time>2010-03-28T14:41:00Z</time>
      </trkpt>
      <trkpt lat="45.60453" lon="5.71401">
        <ele>580</ele>
        <time>2010-03-28T14:41:08Z</time>
      </trkpt>
      <trkpt lat="45.60435" lon="5.71435">
        <ele>580</ele>
        <time>2010-03-28T14:41:14Z</time>
      </trkpt>
      <trkpt lat="45.60414" lon="5.71463">
        <ele>584</ele>
        <time>2010-03-28T14:41:26Z</time>
      </trkpt>
      <trkpt lat="45.60401" lon="5.71498">
        <ele>587</ele>
        <time>2010-03-28T14:41:41Z</time>
      </trkpt>
      <trkpt lat="45.60383" lon="5.71531">
        <ele>589</ele>
        <time>2010-03-28T14:41:56Z</time>
      </trkpt>
      <trkpt lat="45.60368" lon="5.71556">
        <ele>592</ele>
        <time>2010-03-28T14:42:08Z</time>
      </trkpt>
      <trkpt lat="45.60352" lon="5.71584">
        <ele>594</ele>
        <time>2010-03-28T14:42:21Z</time>
      </trkpt>
      <trkpt lat="45.60334" lon="5.71619">
        <ele>597</ele>
        <time>2010-03-28T14:42:36Z</time>
      </trkpt>
      <trkpt lat="45.60312" lon="5.71651">
        <ele>599</ele>
        <time>2010-03-28T14:42:52Z</time>
      </trkpt>
      <trkpt lat="45.60309" lon="5.71655">
        <ele>599</ele>
        <time>2010-03-28T14:42:54Z</time>
      </trkpt>
      <trkpt lat="45.60282" lon="5.71682">
        <ele>599</ele>
        <time>2010-03-28T14:43:06Z</time>
      </trkpt>
      <trkpt lat="45.60265" lon="5.71703">
        <ele>599</ele>
        <time>2010-03-28T14:43:10Z</time>
      </trkpt>
      <trkpt lat="45.60254" lon="5.71727">
        <ele>597</ele>
        <time>2010-03-28T14:43:13Z</time>
      </trkpt>
      <trkpt lat="45.60233" lon="5.71778">
        <ele>594</ele>
        <time>2010-03-28T14:43:19Z</time>
      </trkpt>
      <trkpt lat="45.60225" lon="5.7179">
        <ele>594</ele>
        <time>2010-03-28T14:43:21Z</time>
      </trkpt>
      <trkpt lat="45.60191" lon="5.71826">
        <ele>594</ele>
        <time>2010-03-28T14:43:33Z</time>
      </trkpt>
      <trkpt lat="45.60185" lon="5.7183">
        <ele>593</ele>
        <time>2010-03-28T14:43:35Z</time>
      </trkpt>
      <trkpt lat="45.60156" lon="5.71865">
        <ele>590</ele>
        <time>2010-03-28T14:43:42Z</time>
      </trkpt>
      <trkpt lat="45.60084" lon="5.71952">
        <ele>580</ele>
        <time>2010-03-28T14:43:53Z</time>
      </trkpt>
      <trkpt lat="45.60009" lon="5.72074">
        <ele>569</ele>
        <time>2010-03-28T14:44:05Z</time>
      </trkpt>
      <trkpt lat="45.59974" lon="5.72122">
        <ele>566</ele>
        <time>2010-03-28T14:44:10Z</time>
      </trkpt>
      <trkpt lat="45.59894" lon="5.72207">
        <ele>559</ele>
        <time>2010-03-28T14:44:22Z</time>
      </trkpt>
      <trkpt lat="45.5986" lon="5.7225">
        <ele>555</ele>
        <time>2010-03-28T14:44:28Z</time>
      </trkpt>
      <trkpt lat="45.59852" lon="5.72258">
        <ele>554</ele>
        <time>2010-03-28T14:44:30Z</time>
      </trkpt>
      <trkpt lat="45.59839" lon="5.72264">
        <ele>553</ele>
        <time>2010-03-28T14:44:33Z</time>
      </trkpt>
      <trkpt lat="45.59816" lon="5.72278">
        <ele>551</ele>
        <time>2010-03-28T14:44:37Z</time>
      </trkpt>
      <trkpt lat="45.59794" lon="5.72296">
        <ele>550</ele>
        <time>2010-03-28T14:44:41Z</time>
      </trkpt>
      <trkpt lat="45.59779" lon="5.723">
        <ele>549</ele>
        <time>2010-03-28T14:44:44Z</time>
      </trkpt>
      <trkpt lat="45.59771" lon="5.723">
        <ele>550</ele>
        <time>2010-03-28T14:44:46Z</time>
      </trkpt>
      <trkpt lat="45.59749" lon="5.72295">
        <ele>550</ele>
        <time>2010-03-28T14:44:53Z</time>
      </trkpt>
      <trkpt lat="45.59738" lon="5.72291">
        <ele>553</ele>
        <time>2010-03-28T14:45:01Z</time>
      </trkpt>
      <trkpt lat="45.59725" lon="5.72285">
        <ele>557</ele>
        <time>2010-03-28T14:45:09Z</time>
      </trkpt>
      <trkpt lat="45.59715" lon="5.72289">
        <ele>560</ele>
        <time>2010-03-28T14:45:15Z</time>
      </trkpt>
      <trkpt lat="45.597" lon="5.72299">
        <ele>562</ele>
        <time>2010-03-28T14:45:25Z</time>
      </trkpt>
      <trkpt lat="45.59694" lon="5.72311">
        <ele>564</ele>
        <time>2010-03-28T14:45:31Z</time>
      </trkpt>
      <trkpt lat="45.59688" lon="5.72321">
        <ele>564</ele>
        <time>2010-03-28T14:45:36Z</time>
      </trkpt>
      <trkpt lat="45.59685" lon="5.7233">
        <ele>564</ele>
        <time>2010-03-28T14:45:41Z</time>
      </trkpt>
      <trkpt lat="45.59677" lon="5.72341">
        <ele>563</ele>
        <time>2010-03-28T14:45:47Z</time>
      </trkpt>
      <trkpt lat="45.59642" lon="5.72387">
        <ele>559</ele>
        <time>2010-03-28T14:45:57Z</time>
      </trkpt>
      <trkpt lat="45.5963" lon="5.72404">
        <ele>557</ele>
        <time>2010-03-28T14:46:00Z</time>
      </trkpt>
      <trkpt lat="45.59617" lon="5.72425">
        <ele>554</ele>
        <time>2010-03-28T14:46:04Z</time>
      </trkpt>
      <trkpt lat="45.59586" lon="5.72477">
        <ele>551</ele>
        <time>2010-03-28T14:46:13Z</time>
      </trkpt>
      <trkpt lat="45.5957" lon="5.72495">
        <ele>550</ele>
        <time>2010-03-28T14:46:16Z</time>
      </trkpt>
      <trkpt lat="45.59558" lon="5.72507">
        <ele>548</ele>
        <time>2010-03-28T14:46:18Z</time>
      </trkpt>
      <trkpt lat="45.59539" lon="5.72515">
        <ele>546</ele>
        <time>2010-03-28T14:46:22Z</time>
      </trkpt>
      <trkpt lat="45.59514" lon="5.72511">
        <ele>542</ele>
        <time>2010-03-28T14:46:28Z</time>
      </trkpt>
      <trkpt lat="45.59493" lon="5.72543">
        <ele>539</ele>
        <time>2010-03-28T14:46:38Z</time>
      </trkpt>
      <trkpt lat="45.59489" lon="5.72546">
        <ele>539</ele>
        <time>2010-03-28T14:46:39Z</time>
      </trkpt>
      <trkpt lat="45.59478" lon="5.72558">
        <ele>538</ele>
        <time>2010-03-28T14:46:43Z</time>
      </trkpt>
      <trkpt lat="45.59473" lon="5.72562">
        <ele>538</ele>
        <time>2010-03-28T14:46:52Z</time>
      </trkpt>
      <trkpt lat="45.59481" lon="5.72587">
        <ele>539</ele>
        <time>2010-03-28T14:47:02Z</time>
      </trkpt>
      <trkpt lat="45.59485" lon="5.72645">
        <ele>542</ele>
        <time>2010-03-28T14:47:20Z</time>
      </trkpt>
      <trkpt lat="45.59466" lon="5.72681">
        <ele>547</ele>
        <time>2010-03-28T14:47:35Z</time>
      </trkpt>
      <trkpt lat="45.59439" lon="5.72721">
        <ele>550</ele>
        <time>2010-03-28T14:47:53Z</time>
      </trkpt>
      <trkpt lat="45.59415" lon="5.7276">
        <ele>554</ele>
        <time>2010-03-28T14:48:10Z</time>
      </trkpt>
      <trkpt lat="45.59394" lon="5.728">
        <ele>558</ele>
        <time>2010-03-28T14:48:26Z</time>
      </trkpt>
      <trkpt lat="45.59384" lon="5.72829">
        <ele>560</ele>
        <time>2010-03-28T14:48:39Z</time>
      </trkpt>
      <trkpt lat="45.59378" lon="5.72865">
        <ele>562</ele>
        <time>2010-03-28T14:48:53Z</time>
      </trkpt>
      <trkpt lat="45.59369" lon="5.72918">
        <ele>564</ele>
        <time>2010-03-28T14:49:12Z</time>
      </trkpt>
      <trkpt lat="45.59361" lon="5.72963">
        <ele>567</ele>
        <time>2010-03-28T14:49:28Z</time>
      </trkpt>
      <trkpt lat="45.59355" lon="5.7301">
        <ele>568</ele>
        <time>2010-03-28T14:49:44Z</time>
      </trkpt>
      <trkpt lat="45.59354" lon="5.73035">
        <ele>569</ele>
        <time>2010-03-28T14:49:53Z</time>
      </trkpt>
      <trkpt lat="45.59355" lon="5.73042">
        <ele>569</ele>
        <time>2010-03-28T14:49:56Z</time>
      </trkpt>
      <trkpt lat="45.59343" lon="5.73049">
        <ele>571</ele>
        <time>2010-03-28T14:50:06Z</time>
      </trkpt>
      <trkpt lat="45.59335" lon="5.73056">
        <ele>573</ele>
        <time>2010-03-28T14:50:12Z</time>
      </trkpt>
      <trkpt lat="45.59326" lon="5.73073">
        <ele>573</ele>
        <time>2010-03-28T14:50:23Z</time>
      </trkpt>
      <trkpt lat="45.59324" lon="5.73084">
        <ele>572</ele>
        <time>2010-03-28T14:50:29Z</time>
      </trkpt>
      <trkpt lat="45.59316" lon="5.73104">
        <ele>575</ele>
        <time>2010-03-28T14:50:40Z</time>
      </trkpt>
      <trkpt lat="45.59315" lon="5.73111">
        <ele>575</ele>
        <time>2010-03-28T14:50:43Z</time>
      </trkpt>
      <trkpt lat="45.59313" lon="5.73116">
        <ele>575</ele>
        <time>2010-03-28T14:50:45Z</time>
      </trkpt>
      <trkpt lat="45.5931" lon="5.73119">
        <ele>575</ele>
        <time>2010-03-28T14:50:54Z</time>
      </trkpt>
      <trkpt lat="45.59309" lon="5.7312">
        <ele>575</ele>
        <time>2010-03-28T14:51:25Z</time>
      </trkpt>
      <trkpt lat="45.59287" lon="5.73118">
        <ele>576</ele>
        <time>2010-03-28T14:51:37Z</time>
      </trkpt>
      <trkpt lat="45.59257" lon="5.73105">
        <ele>579</ele>
        <time>2010-03-28T14:51:50Z</time>
      </trkpt>
      <trkpt lat="45.59239" lon="5.73092">
        <ele>580</ele>
        <time>2010-03-28T14:51:58Z</time>
      </trkpt>
      <trkpt lat="45.59205" lon="5.7308">
        <ele>588</ele>
        <time>2010-03-28T14:52:12Z</time>
      </trkpt>
      <trkpt lat="45.59191" lon="5.73069">
        <ele>591</ele>
        <time>2010-03-28T14:52:19Z</time>
      </trkpt>
      <trkpt lat="45.59157" lon="5.73085">
        <ele>593</ele>
        <time>2010-03-28T14:52:34Z</time>
      </trkpt>
      <trkpt lat="45.59138" lon="5.73097">
        <ele>592</ele>
        <time>2010-03-28T14:52:41Z</time>
      </trkpt>
      <trkpt lat="45.59125" lon="5.7308">
        <ele>590</ele>
        <time>2010-03-28T14:52:45Z</time>
      </trkpt>
      <trkpt lat="45.59122" lon="5.73062">
        <ele>589</ele>
        <time>2010-03-28T14:52:48Z</time>
      </trkpt>
      <trkpt lat="45.59105" lon="5.73033">
        <ele>587</ele>
        <time>2010-03-28T14:52:56Z</time>
      </trkpt>
      <trkpt lat="45.59104" lon="5.7303">
        <ele>587</ele>
        <time>2010-03-28T14:52:57Z</time>
      </trkpt>
      <trkpt lat="45.59078" lon="5.73023">
        <ele>589</ele>
        <time>2010-03-28T14:53:11Z</time>
      </trkpt>
      <trkpt lat="45.5906" lon="5.73038">
        <ele>593</ele>
        <time>2010-03-28T14:53:22Z</time>
      </trkpt>
      <trkpt lat="45.59045" lon="5.73053">
        <ele>596</ele>
        <time>2010-03-28T14:53:32Z</time>
      </trkpt>
      <trkpt lat="45.59039" lon="5.73071">
        <ele>594</ele>
        <time>2010-03-28T14:53:40Z</time>
      </trkpt>
      <trkpt lat="45.59024" lon="5.73099">
        <ele>593</ele>
        <time>2010-03-28T14:53:53Z</time>
      </trkpt>
      <trkpt lat="45.59006" lon="5.73122">
        <ele>596</ele>
        <time>2010-03-28T14:54:05Z</time>
      </trkpt>
      <trkpt lat="45.58989" lon="5.73136">
        <ele>598</ele>
        <time>2010-03-28T14:54:17Z</time>
      </trkpt>
      <trkpt lat="45.58983" lon="5.73141">
        <ele>599</ele>
        <time>2010-03-28T14:54:22Z</time>
      </trkpt>
      <trkpt lat="45.58967" lon="5.73149">
        <ele>601</ele>
        <time>2010-03-28T14:54:33Z</time>
      </trkpt>
      <trkpt lat="45.58958" lon="5.73157">
        <ele>603</ele>
        <time>2010-03-28T14:54:40Z</time>
      </trkpt>
      <trkpt lat="45.58948" lon="5.73164">
        <ele>605</ele>
        <time>2010-03-28T14:54:48Z</time>
      </trkpt>
      <trkpt lat="45.58941" lon="5.73171">
        <ele>605</ele>
        <time>2010-03-28T14:54:55Z</time>
      </trkpt>
      <trkpt lat="45.58907" lon="5.73191">
        <ele>603</ele>
        <time>2010-03-28T14:55:08Z</time>
      </trkpt>
      <trkpt lat="45.58874" lon="5.73212">
        <ele>601</ele>
        <time>2010-03-28T14:55:15Z</time>
      </trkpt>
      <trkpt lat="45.58846" lon="5.73221">
        <ele>600</ele>
        <time>2010-03-28T14:55:24Z</time>
      </trkpt>
      <trkpt lat="45.58823" lon="5.7323">
        <ele>604</ele>
        <time>2010-03-28T14:55:34Z</time>
      </trkpt>
      <trkpt lat="45.58803" lon="5.73235">
        <ele>607</ele>
        <time>2010-03-28T14:55:41Z</time>
      </trkpt>
      <trkpt lat="45.58792" lon="5.73252">
        <ele>605</ele>
        <time>2010-03-28T14:55:46Z</time>
      </trkpt>
      <trkpt lat="45.58765" lon="5.73271">
        <ele>599</ele>
        <time>2010-03-28T14:55:53Z</time>
      </trkpt>
      <trkpt lat="45.58761" lon="5.73281">
        <ele>596</ele>
        <time>2010-03-28T14:55:57Z</time>
      </trkpt>
      <trkpt lat="45.58761" lon="5.73316">
        <ele>588</ele>
        <time>2010-03-28T14:56:04Z</time>
      </trkpt>
      <trkpt lat="45.58765" lon="5.73333">
        <ele>585</ele>
        <time>2010-03-28T14:56:11Z</time>
      </trkpt>
      <trkpt lat="45.58802" lon="5.73362">
        <ele>584</ele>
        <time>2010-03-28T14:56:23Z</time>
      </trkpt>
      <trkpt lat="45.58824" lon="5.73379">
        <ele>584</ele>
        <time>2010-03-28T14:56:29Z</time>
      </trkpt>
      <trkpt lat="45.5885" lon="5.73406">
        <ele>582</ele>
        <time>2010-03-28T14:56:37Z</time>
      </trkpt>
      <trkpt lat="45.5886" lon="5.73432">
        <ele>575</ele>
        <time>2010-03-28T14:56:43Z</time>
      </trkpt>
      <trkpt lat="45.58866" lon="5.73441">
        <ele>574</ele>
        <time>2010-03-28T14:56:45Z</time>
      </trkpt>
      <trkpt lat="45.58875" lon="5.7346">
        <ele>571</ele>
        <time>2010-03-28T14:56:48Z</time>
      </trkpt>
      <trkpt lat="45.58887" lon="5.73488">
        <ele>568</ele>
        <time>2010-03-28T14:56:52Z</time>
      </trkpt>
      <trkpt lat="45.58901" lon="5.73522">
        <ele>564</ele>
        <time>2010-03-28T14:56:57Z</time>
      </trkpt>
      <trkpt lat="45.58924" lon="5.73584">
        <ele>563</ele>
        <time>2010-03-28T14:57:08Z</time>
      </trkpt>
      <trkpt lat="45.58953" lon="5.7365">
        <ele>565</ele>
        <time>2010-03-28T14:57:24Z</time>
      </trkpt>
      <trkpt lat="45.58979" lon="5.73679">
        <ele>574</ele>
        <time>2010-03-28T14:57:37Z</time>
      </trkpt>
      <trkpt lat="45.59008" lon="5.7368">
        <ele>574</ele>
        <time>2010-03-28T14:57:47Z</time>
      </trkpt>
      <trkpt lat="45.59023" lon="5.73677">
        <ele>573</ele>
        <time>2010-03-28T14:57:51Z</time>
      </trkpt>
      <trkpt lat="45.59038" lon="5.73679">
        <ele>572</ele>
        <time>2010-03-28T14:57:54Z</time>
      </trkpt>
      <trkpt lat="45.59086" lon="5.73678">
        <ele>573</ele>
        <time>2010-03-28T14:58:06Z</time>
      </trkpt>
      <trkpt lat="45.59101" lon="5.73695">
        <ele>573</ele>
        <time>2010-03-28T14:58:12Z</time>
      </trkpt>
      <trkpt lat="45.5911" lon="5.7371">
        <ele>573</ele>
        <time>2010-03-28T14:58:17Z</time>
      </trkpt>
      <trkpt lat="45.59116" lon="5.73722">
        <ele>571</ele>
        <time>2010-03-28T14:58:20Z</time>
      </trkpt>
      <trkpt lat="45.59115" lon="5.7375">
        <ele>570</ele>
        <time>2010-03-28T14:58:26Z</time>
      </trkpt>
      <trkpt lat="45.59124" lon="5.73768">
        <ele>568</ele>
        <time>2010-03-28T14:58:33Z</time>
      </trkpt>
      <trkpt lat="45.59124" lon="5.73766">
        <ele>569</ele>
        <time>2010-03-28T14:58:42Z</time>
      </trkpt>
      <trkpt lat="45.59121" lon="5.73766">
        <ele>569</ele>
        <time>2010-03-28T14:59:02Z</time>
      </trkpt>
      <trkpt lat="45.59127" lon="5.738">
        <ele>568</ele>
        <time>2010-03-28T14:59:12Z</time>
      </trkpt>
      <trkpt lat="45.59133" lon="5.7381">
        <ele>568</ele>
        <time>2010-03-28T14:59:14Z</time>
      </trkpt>
      <trkpt lat="45.59152" lon="5.73835">
        <ele>567</ele>
        <time>2010-03-28T14:59:19Z</time>
      </trkpt>
      <trkpt lat="45.59202" lon="5.73896">
        <ele>564</ele>
        <time>2010-03-28T14:59:30Z</time>
      </trkpt>
      <trkpt lat="45.59213" lon="5.73919">
        <ele>563</ele>
        <time>2010-03-28T14:59:33Z</time>
      </trkpt>
      <trkpt lat="45.59254" lon="5.73977">
        <ele>564</ele>
        <time>2010-03-28T14:59:44Z</time>
      </trkpt>
      <trkpt lat="45.59292" lon="5.74067">
        <ele>567</ele>
        <time>2010-03-28T15:00:01Z</time>
      </trkpt>
      <trkpt lat="45.59312" lon="5.74152">
        <ele>568</ele>
        <time>2010-03-28T15:00:17Z</time>
      </trkpt>
      <trkpt lat="45.59304" lon="5.74214">
        <ele>568</ele>
        <time>2010-03-28T15:00:28Z</time>
      </trkpt>
      <trkpt lat="45.59295" lon="5.74244">
        <ele>567</ele>
        <time>2010-03-28T15:00:33Z</time>
      </trkpt>
      <trkpt lat="45.59288" lon="5.7427">
        <ele>567</ele>
        <time>2010-03-28T15:00:37Z</time>
      </trkpt>
      <trkpt lat="45.59289" lon="5.74291">
        <ele>566</ele>
        <time>2010-03-28T15:00:40Z</time>
      </trkpt>
      <trkpt lat="45.5929" lon="5.74325">
        <ele>561</ele>
        <time>2010-03-28T15:00:46Z</time>
      </trkpt>
      <trkpt lat="45.59277" lon="5.74355">
        <ele>554</ele>
        <time>2010-03-28T15:00:53Z</time>
      </trkpt>
      <trkpt lat="45.59257" lon="5.74357">
        <ele>552</ele>
        <time>2010-03-28T15:01:01Z</time>
      </trkpt>
      <trkpt lat="45.59246" lon="5.74362">
        <ele>551</ele>
        <time>2010-03-28T15:01:05Z</time>
      </trkpt>
      <trkpt lat="45.59226" lon="5.74375">
        <ele>550</ele>
        <time>2010-03-28T15:01:12Z</time>
      </trkpt>
      <trkpt lat="45.59186" lon="5.74398">
        <ele>550</ele>
        <time>2010-03-28T15:01:25Z</time>
      </trkpt>
      <trkpt lat="45.59184" lon="5.74402">
        <ele>550</ele>
        <time>2010-03-28T15:01:26Z</time>
      </trkpt>
      <trkpt lat="45.59184" lon="5.74418">
        <ele>550</ele>
        <time>2010-03-28T15:01:33Z</time>
      </trkpt>
      <trkpt lat="45.59189" lon="5.74431">
        <ele>546</ele>
        <time>2010-03-28T15:01:39Z</time>
      </trkpt>
      <trkpt lat="45.5919" lon="5.74445">
        <ele>541</ele>
        <time>2010-03-28T15:01:48Z</time>
      </trkpt>
      <trkpt lat="45.5919" lon="5.74462">
        <ele>538</ele>
        <time>2010-03-28T15:01:56Z</time>
      </trkpt>
      <trkpt lat="45.5919" lon="5.74476">
        <ele>537</ele>
        <time>2010-03-28T15:02:00Z</time>
      </trkpt>
      <trkpt lat="45.59189" lon="5.74481">
        <ele>536</ele>
        <time>2010-03-28T15:02:02Z</time>
      </trkpt>
      <trkpt lat="45.59191" lon="5.74489">
        <ele>533</ele>
        <time>2010-03-28T15:02:06Z</time>
      </trkpt>
      <trkpt lat="45.59191" lon="5.74504">
        <ele>531</ele>
        <time>2010-03-28T15:02:11Z</time>
      </trkpt>
      <trkpt lat="45.59192" lon="5.74541">
        <ele>526</ele>
        <time>2010-03-28T15:02:20Z</time>
      </trkpt>
      <trkpt lat="45.59192" lon="5.74594">
        <ele>528</ele>
        <time>2010-03-28T15:02:32Z</time>
      </trkpt>
      <trkpt lat="45.59183" lon="5.74637">
        <ele>525</ele>
        <time>2010-03-28T15:02:41Z</time>
      </trkpt>
      <trkpt lat="45.5917" lon="5.74707">
        <ele>535</ele>
        <time>2010-03-28T15:02:54Z</time>
      </trkpt>
      <trkpt lat="45.59154" lon="5.74755">
        <ele>543</ele>
        <time>2010-03-28T15:03:07Z</time>
      </trkpt>
      <trkpt lat="45.59156" lon="5.74781">
        <ele>543</ele>
        <time>2010-03-28T15:03:13Z</time>
      </trkpt>
      <trkpt lat="45.59167" lon="5.74842">
        <ele>541</ele>
        <time>2010-03-28T15:03:21Z</time>
      </trkpt>
      <trkpt lat="45.5923" lon="5.74933">
        <ele>532</ele>
        <time>2010-03-28T15:03:31Z</time>
      </trkpt>
      <trkpt lat="45.59262" lon="5.74983">
        <ele>528</ele>
        <time>2010-03-28T15:03:35Z</time>
      </trkpt>
      <trkpt lat="45.59293" lon="5.75101">
        <ele>519</ele>
        <time>2010-03-28T15:03:42Z</time>
      </trkpt>
      <trkpt lat="45.5931" lon="5.75285">
        <ele>506</ele>
        <time>2010-03-28T15:03:52Z</time>
      </trkpt>
      <trkpt lat="45.59342" lon="5.75383">
        <ele>500</ele>
        <time>2010-03-28T15:03:59Z</time>
      </trkpt>
      <trkpt lat="45.59345" lon="5.75475">
        <ele>493</ele>
        <time>2010-03-28T15:04:13Z</time>
      </trkpt>
      <trkpt lat="45.59333" lon="5.75548">
        <ele>486</ele>
        <time>2010-03-28T15:04:23Z</time>
      </trkpt>
      <trkpt lat="45.59332" lon="5.75554">
        <ele>485</ele>
        <time>2010-03-28T15:04:24Z</time>
      </trkpt>
      <trkpt lat="45.59301" lon="5.75624">
        <ele>476</ele>
        <time>2010-03-28T15:04:32Z</time>
      </trkpt>
      <trkpt lat="45.59272" lon="5.7572">
        <ele>469</ele>
        <time>2010-03-28T15:04:43Z</time>
      </trkpt>
      <trkpt lat="45.59259" lon="5.75788">
        <ele>466</ele>
        <time>2010-03-28T15:04:55Z</time>
      </trkpt>
      <trkpt lat="45.59249" lon="5.7588">
        <ele>458</ele>
        <time>2010-03-28T15:05:07Z</time>
      </trkpt>
      <trkpt lat="45.59244" lon="5.75952">
        <ele>451</ele>
        <time>2010-03-28T15:05:15Z</time>
      </trkpt>
      <trkpt lat="45.59232" lon="5.75989">
        <ele>449</ele>
        <time>2010-03-28T15:05:19Z</time>
      </trkpt>
      <trkpt lat="45.59227" lon="5.76045">
        <ele>442</ele>
        <time>2010-03-28T15:05:29Z</time>
      </trkpt>
      <trkpt lat="45.59232" lon="5.76082">
        <ele>440</ele>
        <time>2010-03-28T15:05:36Z</time>
      </trkpt>
      <trkpt lat="45.59243" lon="5.76124">
        <ele>440</ele>
        <time>2010-03-28T15:05:43Z</time>
      </trkpt>
      <trkpt lat="45.59249" lon="5.76148">
        <ele>440</ele>
        <time>2010-03-28T15:05:47Z</time>
      </trkpt>
      <trkpt lat="45.59256" lon="5.76178">
        <ele>440</ele>
        <time>2010-03-28T15:05:52Z</time>
      </trkpt>
      <trkpt lat="45.59277" lon="5.76253">
        <ele>440</ele>
        <time>2010-03-28T15:06:03Z</time>
      </trkpt>
      <trkpt lat="45.5928" lon="5.76268">
        <ele>440</ele>
        <time>2010-03-28T15:06:05Z</time>
      </trkpt>
      <trkpt lat="45.5928" lon="5.76328">
        <ele>439</ele>
        <time>2010-03-28T15:06:13Z</time>
      </trkpt>
      <trkpt lat="45.59285" lon="5.76468">
        <ele>436</ele>
        <time>2010-03-28T15:06:30Z</time>
      </trkpt>
      <trkpt lat="45.59291" lon="5.76526">
        <ele>435</ele>
        <time>2010-03-28T15:06:38Z</time>
      </trkpt>
      <trkpt lat="45.59292" lon="5.76528">
        <ele>436</ele>
        <time>2010-03-28T15:06:45Z</time>
      </trkpt>
      <trkpt lat="45.59294" lon="5.7655">
        <ele>437</ele>
        <time>2010-03-28T15:06:50Z</time>
      </trkpt>
      <trkpt lat="45.59303" lon="5.76658">
        <ele>433</ele>
        <time>2010-03-28T15:07:04Z</time>
      </trkpt>
      <trkpt lat="45.59317" lon="5.76819">
        <ele>428</ele>
        <time>2010-03-28T15:07:20Z</time>
      </trkpt>
      <trkpt lat="45.59337" lon="5.76876">
        <ele>425</ele>
        <time>2010-03-28T15:07:26Z</time>
      </trkpt>
      <trkpt lat="45.59418" lon="5.76966">
        <ele>421</ele>
        <time>2010-03-28T15:07:37Z</time>
      </trkpt>
      <trkpt lat="45.59465" lon="5.77015">
        <ele>421</ele>
        <time>2010-03-28T15:07:44Z</time>
      </trkpt>
      <trkpt lat="45.59497" lon="5.77033">
        <ele>424</ele>
        <time>2010-03-28T15:07:51Z</time>
      </trkpt>
      <trkpt lat="45.59506" lon="5.77069">
        <ele>424</ele>
        <time>2010-03-28T15:07:59Z</time>
      </trkpt>
      <trkpt lat="45.5952" lon="5.77084">
        <ele>425</ele>
        <time>2010-03-28T15:08:04Z</time>
      </trkpt>
      <trkpt lat="45.59522" lon="5.77104">
        <ele>425</ele>
        <time>2010-03-28T15:08:09Z</time>
      </trkpt>
      <trkpt lat="45.59519" lon="5.77143">
        <ele>423</ele>
        <time>2010-03-28T15:08:19Z</time>
      </trkpt>
      <trkpt lat="45.59541" lon="5.77167">
        <ele>426</ele>
        <time>2010-03-28T15:08:30Z</time>
      </trkpt>
      <trkpt lat="45.59544" lon="5.77165">
        <ele>427</ele>
        <time>2010-03-28T15:08:41Z</time>
      </trkpt>
      <trkpt lat="45.59551" lon="5.77156">
        <ele>429</ele>
        <time>2010-03-28T15:08:54Z</time>
      </trkpt>
      <trkpt lat="45.59553" lon="5.77154">
        <ele>429</ele>
        <time>2010-03-28T15:08:56Z</time>
      </trkpt>
      <trkpt lat="45.59556" lon="5.77154">
        <ele>428</ele>
        <time>2010-03-28T15:09:35Z</time>
      </trkpt>
    </trkseg>
  </trk>
</gpx>